Observation data for Goodnight on 06/30/2020      Previous  Date  Next       Current Mesonet Observations  Soil Data  Daily Summary Page  Observations in Plain Language
KGO1 300500Z 16016KT 26/17 A2978 RMK A01 T02630172  RH  057%=      5-min Rain = 0
KGO1 300501Z 16019KT 26/17 A2978 RMK A01 T02630172  RH  058%=      5-min Rain = 0
KGO1 300502Z 16017KT 26/17 A2978 RMK A01 T02630173  RH  057%=      5-min Rain = 0
KGO1 300503Z 16016KT 26/17 A2978 RMK A01 T02630173  RH  057%=      5-min Rain = 0
KGO1 300504Z 15015KT 26/17 A2978 RMK A01 T02630173  RH  057%=      5-min Rain = 0
KGO1 300505Z 15014KT 26/17 A2978 RMK A01 T02630173  RH  058%=      5-min Rain = 0
KGO1 300506Z 15012KT 26/17 A2978 RMK A01 T02620173  RH  058%=      5-min Rain = 0
KGO1 300507Z 15014KT 26/17 A2978 RMK A01 T02610172  RH  058%=      5-min Rain = 0
KGO1 300508Z 16014KT 26/17 A2978 RMK A01 T02600172  RH  058%=      5-min Rain = 0
KGO1 300509Z 15017KT 26/17 A2978 RMK A01 T02610172  RH  058%=      5-min Rain = 0
KGO1 300510Z 15018KT 26/17 A2978 RMK A01 T02610171  RH  058%=      5-min Rain = 0
KGO1 300511Z 16015G21KT 26/17 A2978 RMK A01 T02610171  RH  058%=      5-min Rain = 0
KGO1 300512Z 15016KT 26/17 A2978 RMK A01 T02600171  RH  058%=      5-min Rain = 0
KGO1 300513Z 15016KT 26/17 A2978 RMK A01 T02600171  RH  058%=      5-min Rain = 0
KGO1 300514Z 15014KT 26/17 A2978 RMK A01 T02590171  RH  058%=      5-min Rain = 0
KGO1 300515Z 15016KT 26/17 A2978 RMK A01 T02590170  RH  058%=      5-min Rain = 0
KGO1 300516Z 15014KT 26/17 A2978 RMK A01 T02590171  RH  058%=      5-min Rain = 0
KGO1 300517Z 15016KT 26/17 A2978 RMK A01 T02580170  RH  058%=      5-min Rain = 0
KGO1 300518Z 15013KT 26/17 A2978 RMK A01 T02580170  RH  058%=      5-min Rain = 0
KGO1 300519Z 15015KT 26/17 A2978 RMK A01 T02570170  RH  058%=      5-min Rain = 0
KGO1 300520Z 15015KT 26/17 A2978 RMK A01 T02560170  RH  059%=      5-min Rain = 0
KGO1 300521Z 16016KT 26/17 A2978 RMK A01 T02560170  RH  059%=      5-min Rain = 0
KGO1 300522Z 16016KT 26/17 A2978 RMK A01 T02560170  RH  059%=      5-min Rain = 0
KGO1 300523Z 16019KT 26/17 A2978 RMK A01 T02560169  RH  059%=      5-min Rain = 0
KGO1 300524Z 15019KT 26/17 A2978 RMK A01 T02560170  RH  059%=      5-min Rain = 0
KGO1 300525Z 15016KT 26/17 A2978 RMK A01 T02570170  RH  059%=      5-min Rain = 0
KGO1 300526Z 16018KT 26/17 A2978 RMK A01 T02570170  RH  059%=      5-min Rain = 0
KGO1 300527Z 15019KT 26/17 A2978 RMK A01 T02570170  RH  059%=      5-min Rain = 0
KGO1 300528Z 16017KT 26/17 A2978 RMK A01 T02560170  RH  059%=      5-min Rain = 0
KGO1 300529Z 16016KT 26/17 A2978 RMK A01 T02560170  RH  059%=      5-min Rain = 0
KGO1 300530Z 16017KT 26/17 A2978 RMK A01 T02550170  RH  059%=      5-min Rain = 0
KGO1 300531Z 16017KT 26/17 A2978 RMK A01 T02550170  RH  059%=      5-min Rain = 0
KGO1 300532Z 16015KT 26/17 A2978 RMK A01 T02550170  RH  059%=      5-min Rain = 0
KGO1 300533Z 16016KT 25/17 A2978 RMK A01 T02540170  RH  060%=      5-min Rain = 0
KGO1 300534Z 16015KT 25/17 A2978 RMK A01 T02540170  RH  060%=      5-min Rain = 0
KGO1 300535Z 15015KT 25/17 A2978 RMK A01 T02540170  RH  060%=      5-min Rain = 0
KGO1 300536Z 15015KT 25/17 A2978 RMK A01 T02540171  RH  060%=      5-min Rain = 0
KGO1 300537Z 15014KT 25/17 A2978 RMK A01 T02530171  RH  060%=      5-min Rain = 0
KGO1 300538Z 15017KT 25/17 A2978 RMK A01 T02520171  RH  061%=      5-min Rain = 0
KGO1 300539Z 16016KT 25/17 A2978 RMK A01 T02520171  RH  061%=      5-min Rain = 0
KGO1 300540Z 16018KT 25/17 A2978 RMK A01 T02520171  RH  061%=      5-min Rain = 0
KGO1 300541Z 16016KT 25/17 A2978 RMK A01 T02520171  RH  061%=      5-min Rain = 0
KGO1 300542Z 15016G21KT 25/17 A2978 RMK A01 T02530172  RH  061%=      5-min Rain = 0
KGO1 300543Z 16016KT 25/17 A2978 RMK A01 T02530172  RH  061%=      5-min Rain = 0
KGO1 300544Z 16016KT 25/17 A2978 RMK A01 T02520172  RH  061%=      5-min Rain = 0
KGO1 300545Z 16015KT 25/17 A2978 RMK A01 T02520171  RH  061%=      5-min Rain = 0
KGO1 300546Z 16015KT 25/17 A2978 RMK A01 T02520171  RH  061%=      5-min Rain = 0
KGO1 300547Z 16015KT 25/17 A2978 RMK A01 T02520171  RH  061%=      5-min Rain = 0
KGO1 300548Z 16015KT 25/17 A2979 RMK A01 T02520171  RH  061%=      5-min Rain = 0
KGO1 300549Z 16016KT 25/17 A2979 RMK A01 T02520172  RH  061%=      5-min Rain = 0
KGO1 300550Z 16015KT 25/17 A2978 RMK A01 T02510171  RH  061%=      5-min Rain = 0
KGO1 300551Z 16015KT 25/17 A2978 RMK A01 T02510171  RH  061%=      5-min Rain = 0
KGO1 300552Z 16015KT 25/17 A2978 RMK A01 T02510171  RH  061%=      5-min Rain = 0
KGO1 300553Z 16013KT 25/17 A2978 RMK A01 T02510171  RH  061%=      5-min Rain = 0
KGO1 300554Z 16013KT 25/17 A2978 RMK A01 T02510171  RH  061%=      5-min Rain = 0
KGO1 300555Z 16014KT 25/17 A2978 RMK A01 T02500171  RH  061%=      5-min Rain = 0
KGO1 300556Z 16013KT 25/17 A2978 RMK A01 T02490171  RH  062%=      5-min Rain = 0
KGO1 300557Z 16013KT 25/17 A2978 RMK A01 T02500171  RH  062%=      5-min Rain = 0
KGO1 300558Z 16012KT 25/17 A2978 RMK A01 T02490171  RH  062%=      5-min Rain = 0
KGO1 300559Z 16013KT 25/17 A2978 RMK A01 T02490171  RH  062%=      5-min Rain = 0
KGO1 300600Z 16014KT 25/17 A2978 RMK A01 T02490171  RH  062%=      5-min Rain = 0
KGO1 300601Z 16013KT 25/17 A2978 RMK A01 T02490171  RH  062%=      5-min Rain = 0
KGO1 300602Z 16015KT 25/17 A2978 RMK A01 T02490171  RH  062%=      5-min Rain = 0
KGO1 300603Z 15014KT 25/17 A2979 RMK A01 T02490172  RH  062%=      5-min Rain = 0
KGO1 300604Z 16014KT 25/17 A2978 RMK A01 T02490172  RH  062%=      5-min Rain = 0
KGO1 300605Z 16014KT 25/17 A2979 RMK A01 T02480172  RH  062%=      5-min Rain = 0
KGO1 300606Z 15013KT 25/17 A2978 RMK A01 T02480172  RH  063%=      5-min Rain = 0
KGO1 300607Z 16015KT 25/17 A2978 RMK A01 T02480173  RH  063%=      5-min Rain = 0
KGO1 300608Z 16014KT 25/17 A2979 RMK A01 T02480173  RH  063%=      5-min Rain = 0
KGO1 300609Z 16014KT 25/17 A2979 RMK A01 T02480173  RH  063%=      5-min Rain = 0
KGO1 300610Z 16014KT 25/17 A2979 RMK A01 T02480173  RH  063%=      5-min Rain = 0
KGO1 300611Z 16014KT 25/17 A2978 RMK A01 T02480173  RH  063%=      5-min Rain = 0
KGO1 300612Z 16014KT 25/17 A2979 RMK A01 T02470172  RH  063%=      5-min Rain = 0
KGO1 300613Z 16014KT 25/17 A2979 RMK A01 T02470173  RH  063%=      5-min Rain = 0
KGO1 300614Z 16012KT 25/17 A2979 RMK A01 T02470172  RH  063%=      5-min Rain = 0
KGO1 300615Z 16012KT 25/17 A2979 RMK A01 T02460172  RH  063%=      5-min Rain = 0
KGO1 300616Z 16012KT 25/17 A2979 RMK A01 T02460172  RH  064%=      5-min Rain = 0
KGO1 300617Z 16012KT 25/17 A2979 RMK A01 T02450172  RH  064%=      5-min Rain = 0
KGO1 300618Z 16011KT 25/17 A2979 RMK A01 T02450172  RH  064%=      5-min Rain = 0
KGO1 300619Z 16011KT 24/17 A2979 RMK A01 T02440172  RH  064%=      5-min Rain = 0
KGO1 300620Z 16011KT 24/17 A2979 RMK A01 T02430172  RH  064%=      5-min Rain = 0
KGO1 300621Z 16010KT 24/17 A2979 RMK A01 T02430172  RH  065%=      5-min Rain = 0
KGO1 300622Z 16012KT 24/17 A2979 RMK A01 T02420172  RH  065%=      5-min Rain = 0
KGO1 300623Z 16011KT 24/17 A2979 RMK A01 T02420172  RH  065%=      5-min Rain = 0
KGO1 300624Z 16010KT 24/17 A2979 RMK A01 T02410172  RH  065%=      5-min Rain = 0
KGO1 300625Z 16010KT 24/17 A2979 RMK A01 T02410171  RH  065%=      5-min Rain = 0
KGO1 300626Z 16011KT 24/17 A2979 RMK A01 T02400171  RH  065%=      5-min Rain = 0
KGO1 300627Z 16011KT 24/17 A2979 RMK A01 T02400172  RH  065%=      5-min Rain = 0
KGO1 300628Z 16011KT 24/17 A2979 RMK A01 T02400172  RH  066%=      5-min Rain = 0
KGO1 300629Z 16012KT 24/17 A2979 RMK A01 T02400172  RH  066%=      5-min Rain = 0
KGO1 300630Z 16011KT 24/17 A2979 RMK A01 T02400172  RH  066%=      5-min Rain = 0
KGO1 300631Z 16012KT 24/17 A2979 RMK A01 T02390172  RH  066%=      5-min Rain = 0
KGO1 300632Z 16012KT 24/17 A2979 RMK A01 T02390172  RH  066%=      5-min Rain = 0
KGO1 300633Z 16012KT 24/17 A2979 RMK A01 T02390172  RH  066%=      5-min Rain = 0
KGO1 300634Z 16011KT 24/17 A2979 RMK A01 T02400172  RH  066%=      5-min Rain = 0
KGO1 300635Z 17013KT 24/17 A2979 RMK A01 T02390172  RH  066%=      5-min Rain = 0
KGO1 300636Z 17012KT 24/17 A2979 RMK A01 T02390172  RH  066%=      5-min Rain = 0
KGO1 300637Z 17013KT 24/17 A2979 RMK A01 T02390172  RH  066%=      5-min Rain = 0
KGO1 300638Z 17013KT 24/17 A2979 RMK A01 T02390172  RH  066%=      5-min Rain = 0
KGO1 300639Z 16013KT 24/17 A2979 RMK A01 T02380172  RH  066%=      5-min Rain = 0
KGO1 300640Z 17013KT 24/17 A2978 RMK A01 T02380172  RH  067%=      5-min Rain = 0
KGO1 300641Z 16013KT 24/17 A2978 RMK A01 T02380172  RH  066%=      5-min Rain = 0
KGO1 300642Z 17013KT 24/17 A2978 RMK A01 T02380171  RH  066%=      5-min Rain = 0
KGO1 300643Z 17014KT 24/17 A2978 RMK A01 T02380171  RH  066%=      5-min Rain = 0
KGO1 300644Z 17013KT 24/17 A2978 RMK A01 T02380171  RH  066%=      5-min Rain = 0
KGO1 300645Z 17012KT 24/17 A2978 RMK A01 T02370170  RH  066%=      5-min Rain = 0
KGO1 300646Z 17013KT 24/17 A2978 RMK A01 T02380170  RH  066%=      5-min Rain = 0
KGO1 300647Z 17013KT 24/17 A2978 RMK A01 T02380169  RH  065%=      5-min Rain = 0
KGO1 300648Z 17013KT 24/17 A2978 RMK A01 T02390167  RH  064%=      5-min Rain = 0
KGO1 300649Z 17014KT 24/17 A2978 RMK A01 T02400166  RH  063%=      5-min Rain = 0
KGO1 300650Z 17015KT 24/17 A2978 RMK A01 T02410166  RH  063%=      5-min Rain = 0
KGO1 300651Z 17014KT 24/17 A2978 RMK A01 T02420166  RH  062%=      5-min Rain = 0
KGO1 300652Z 17015KT 24/16 A2978 RMK A01 T02420164  RH  062%=      5-min Rain = 0
KGO1 300653Z 17015KT 24/16 A2978 RMK A01 T02430164  RH  061%=      5-min Rain = 0
KGO1 300654Z 17015KT 24/16 A2978 RMK A01 T02430164  RH  061%=      5-min Rain = 0
KGO1 300655Z 17015KT 24/16 A2978 RMK A01 T02430163  RH  061%=      5-min Rain = 0
KGO1 300656Z 17015KT 24/16 A2978 RMK A01 T02440162  RH  060%=      5-min Rain = 0
KGO1 300657Z 17015KT 24/16 A2978 RMK A01 T02440161  RH  060%=      5-min Rain = 0
KGO1 300658Z 17015KT 25/16 A2978 RMK A01 T02450161  RH  059%=      5-min Rain = 0
KGO1 300659Z 17015KT 25/16 A2978 RMK A01 T02450161  RH  059%=      5-min Rain = 0
KGO1 300700Z 17015KT 25/16 A2978 RMK A01 T02450162  RH  060%=      5-min Rain = 0
KGO1 300701Z 17015KT 25/16 A2978 RMK A01 T02450161  RH  060%=      5-min Rain = 0
KGO1 300702Z 17015KT 25/16 A2978 RMK A01 T02450161  RH  059%=      5-min Rain = 0
KGO1 300703Z 17016KT 25/16 A2978 RMK A01 T02450161  RH  059%=      5-min Rain = 0
KGO1 300704Z 17014KT 25/16 A2978 RMK A01 T02450162  RH  060%=      5-min Rain = 0
KGO1 300705Z 17017KT 25/16 A2978 RMK A01 T02450162  RH  060%=      5-min Rain = 0
KGO1 300706Z 17016KT 25/16 A2978 RMK A01 T02460161  RH  059%=      5-min Rain = 0
KGO1 300707Z 17016KT 25/16 A2978 RMK A01 T02460161  RH  059%=      5-min Rain = 0
KGO1 300708Z 17017KT 25/16 A2978 RMK A01 T02460160  RH  059%=      5-min Rain = 0
KGO1 300709Z 17016KT 25/16 A2978 RMK A01 T02460158  RH  058%=      5-min Rain = 0
KGO1 300710Z 17016KT 25/16 A2978 RMK A01 T02470158  RH  058%=      5-min Rain = 0
KGO1 300711Z 17016KT 25/16 A2978 RMK A01 T02470158  RH  057%=      5-min Rain = 0
KGO1 300712Z 17016KT 25/16 A2978 RMK A01 T02470158  RH  057%=      5-min Rain = 0
KGO1 300713Z 17016KT 25/16 A2978 RMK A01 T02470157  RH  057%=      5-min Rain = 0
KGO1 300714Z 17015KT 25/16 A2978 RMK A01 T02480157  RH  057%=      5-min Rain = 0
KGO1 300715Z 17015KT 25/16 A2978 RMK A01 T02480158  RH  058%=      5-min Rain = 0
KGO1 300716Z 17015KT 25/16 A2978 RMK A01 T02460158  RH  058%=      5-min Rain = 0
KGO1 300717Z 17015KT 25/16 A2978 RMK A01 T02460158  RH  058%=      5-min Rain = 0
KGO1 300718Z 17015KT 25/16 A2978 RMK A01 T02460158  RH  058%=      5-min Rain = 0
KGO1 300719Z 17016KT 25/16 A2978 RMK A01 T02450158  RH  058%=      5-min Rain = 0
KGO1 300720Z 17016KT 25/16 A2978 RMK A01 T02460157  RH  058%=      5-min Rain = 0
KGO1 300721Z 17016KT 25/16 A2978 RMK A01 T02460157  RH  058%=      5-min Rain = 0
KGO1 300722Z 17015KT 25/16 A2978 RMK A01 T02460157  RH  058%=      5-min Rain = 0
KGO1 300723Z 17015KT 25/16 A2978 RMK A01 T02460157  RH  058%=      5-min Rain = 0
KGO1 300724Z 17016KT 25/16 A2978 RMK A01 T02460157  RH  058%=      5-min Rain = 0
KGO1 300725Z 17016KT 25/16 A2978 RMK A01 T02460156  RH  057%=      5-min Rain = 0
KGO1 300726Z 16015KT 25/16 A2978 RMK A01 T02470156  RH  057%=      5-min Rain = 0
KGO1 300727Z 17014KT 25/16 A2978 RMK A01 T02470157  RH  057%=      5-min Rain = 0
KGO1 300728Z 17014KT 25/16 A2978 RMK A01 T02460158  RH  058%=      5-min Rain = 0
KGO1 300729Z 17015KT 25/16 A2978 RMK A01 T02460158  RH  058%=      5-min Rain = 0
KGO1 300730Z 17015KT 25/16 A2978 RMK A01 T02450158  RH  058%=      5-min Rain = 0
KGO1 300731Z 16017KT 24/16 A2978 RMK A01 T02440157  RH  058%=      5-min Rain = 0
KGO1 300732Z 17016KT 24/16 A2978 RMK A01 T02440157  RH  058%=      5-min Rain = 0
KGO1 300733Z 16016KT 24/16 A2978 RMK A01 T02440157  RH  058%=      5-min Rain = 0
KGO1 300734Z 17016KT 24/16 A2978 RMK A01 T02440156  RH  058%=      5-min Rain = 0
KGO1 300735Z 17016KT 24/16 A2978 RMK A01 T02440155  RH  058%=      5-min Rain = 0
KGO1 300736Z 17015KT 24/15 A2978 RMK A01 T02440154  RH  057%=      5-min Rain = 0
KGO1 300737Z 16016KT 25/15 A2977 RMK A01 T02450154  RH  057%=      5-min Rain = 0
KGO1 300738Z 17017KT 25/15 A2977 RMK A01 T02450152  RH  056%=      5-min Rain = 0
KGO1 300739Z 16017KT 25/15 A2977 RMK A01 T02470152  RH  055%=      5-min Rain = 0
KGO1 300740Z 17016KT 25/15 A2977 RMK A01 T02470151  RH  055%=      5-min Rain = 0
KGO1 300741Z 17015KT 25/15 A2977 RMK A01 T02480151  RH  055%=      5-min Rain = 0
KGO1 300742Z 16017KT 25/15 A2977 RMK A01 T02480151  RH  055%=      5-min Rain = 0
KGO1 300743Z 17017KT 25/15 A2977 RMK A01 T02480149  RH  054%=      5-min Rain = 0
KGO1 300744Z 17017KT 25/15 A2977 RMK A01 T02480148  RH  054%=      5-min Rain = 0
KGO1 300745Z 16016KT 25/15 A2977 RMK A01 T02490148  RH  053%=      5-min Rain = 0
KGO1 300746Z 17016KT 25/15 A2977 RMK A01 T02490148  RH  053%=      5-min Rain = 0
KGO1 300747Z 17015KT 25/15 A2977 RMK A01 T02490148  RH  053%=      5-min Rain = 0
KGO1 300748Z 16014KT 25/15 A2977 RMK A01 T02480148  RH  054%=      5-min Rain = 0
KGO1 300749Z 17016KT 25/15 A2977 RMK A01 T02480147  RH  053%=      5-min Rain = 0
KGO1 300750Z 16015KT 25/15 A2977 RMK A01 T02480146  RH  053%=      5-min Rain = 0
KGO1 300751Z 17016KT 25/15 A2977 RMK A01 T02490145  RH  052%=      5-min Rain = 0
KGO1 300752Z 16014KT 25/15 A2977 RMK A01 T02500145  RH  052%=      5-min Rain = 0
KGO1 300753Z 16014KT 25/15 A2977 RMK A01 T02500145  RH  052%=      5-min Rain = 0
KGO1 300754Z 16014KT 25/15 A2977 RMK A01 T02500145  RH  052%=      5-min Rain = 0
KGO1 300755Z 16013KT 25/15 A2977 RMK A01 T02490145  RH  052%=      5-min Rain = 0
KGO1 300756Z 17014KT 25/14 A2977 RMK A01 T02490144  RH  052%=      5-min Rain = 0
KGO1 300757Z 16012KT 25/15 A2977 RMK A01 T02490145  RH  052%=      5-min Rain = 0
KGO1 300758Z 16014KT 25/14 A2977 RMK A01 T02480144  RH  052%=      5-min Rain = 0
KGO1 300759Z 16013KT 25/14 A2977 RMK A01 T02480144  RH  052%=      5-min Rain = 0
KGO1 300800Z 16012KT 25/14 A2977 RMK A01 T02480144  RH  052%=      5-min Rain = 0
KGO1 300801Z 17012KT 25/14 A2977 RMK A01 T02480144  RH  052%=      5-min Rain = 0
KGO1 300802Z 17013KT 25/14 A2977 RMK A01 T02480143  RH  052%=      5-min Rain = 0
KGO1 300803Z 17013KT 25/14 A2977 RMK A01 T02480142  RH  052%=      5-min Rain = 0
KGO1 300804Z 17012KT 25/14 A2977 RMK A01 T02480142  RH  052%=      5-min Rain = 0
KGO1 300805Z 17011KT 25/14 A2978 RMK A01 T02480143  RH  052%=      5-min Rain = 0
KGO1 300806Z 17012KT 25/14 A2978 RMK A01 T02470143  RH  052%=      5-min Rain = 0
KGO1 300807Z 16011KT 25/14 A2977 RMK A01 T02460143  RH  053%=      5-min Rain = 0
KGO1 300808Z 16012KT 25/14 A2977 RMK A01 T02460143  RH  053%=      5-min Rain = 0
KGO1 300809Z 16011KT 25/14 A2977 RMK A01 T02450142  RH  053%=      5-min Rain = 0
KGO1 300810Z 17012KT 25/14 A2977 RMK A01 T02450141  RH  052%=      5-min Rain = 0
KGO1 300811Z 16012KT 25/14 A2977 RMK A01 T02470139  RH  051%=      5-min Rain = 0
KGO1 300812Z 17012KT 25/14 A2977 RMK A01 T02490139  RH  050%=      5-min Rain = 0
KGO1 300813Z 16012KT 25/14 A2977 RMK A01 T02500138  RH  050%=      5-min Rain = 0
KGO1 300814Z 16013KT 25/14 A2977 RMK A01 T02510138  RH  049%=      5-min Rain = 0
KGO1 300815Z 17013KT 25/14 A2977 RMK A01 T02510137  RH  049%=      5-min Rain = 0
KGO1 300816Z 16014KT 25/14 A2977 RMK A01 T02530137  RH  048%=      5-min Rain = 0
KGO1 300817Z 16010KT 25/14 A2978 RMK A01 T02540137  RH  048%=      5-min Rain = 0
KGO1 300818Z 17009KT 25/14 A2978 RMK A01 T02530139  RH  049%=      5-min Rain = 0
KGO1 300819Z 17010KT 25/14 A2978 RMK A01 T02510139  RH  050%=      5-min Rain = 0
KGO1 300820Z 17010KT 25/14 A2978 RMK A01 T02490139  RH  050%=      5-min Rain = 0
KGO1 300821Z 18008KT 25/14 A2978 RMK A01 T02480140  RH  051%=      5-min Rain = 0
KGO1 300822Z 17009KT 25/14 A2978 RMK A01 T02460140  RH  052%=      5-min Rain = 0
KGO1 300823Z 17008KT 25/14 A2978 RMK A01 T02450140  RH  052%=      5-min Rain = 0
KGO1 300824Z 18011KT 24/14 A2978 RMK A01 T02440140  RH  052%=      5-min Rain = 0
KGO1 300825Z 18011KT 24/14 A2978 RMK A01 T02440141  RH  052%=      5-min Rain = 0
KGO1 300826Z 17011KT 25/14 A2978 RMK A01 T02460141  RH  052%=      5-min Rain = 0
KGO1 300827Z 18013G18KT 25/14 A2978 RMK A01 T02470142  RH  052%=      5-min Rain = 0
KGO1 300828Z 18011KT 25/14 A2978 RMK A01 T02470142  RH  052%=      5-min Rain = 0
KGO1 300829Z 19011KT 25/14 A2978 RMK A01 T02470143  RH  052%=      5-min Rain = 0
KGO1 300830Z 19014G20KT 25/14 A2978 RMK A01 T02470144  RH  053%=      5-min Rain = 0
KGO1 300831Z 20016KT 25/15 A2978 RMK A01 T02510146  RH  052%=      5-min Rain = 0
KGO1 300832Z 19014G19KT 26/15 A2978 RMK A01 T02560146  RH  051%=      5-min Rain = 0
KGO1 300833Z 19016KT 26/15 A2978 RMK A01 T02570146  RH  050%=      5-min Rain = 0
KGO1 300834Z 19018G23KT 26/15 A2978 RMK A01 T02580147  RH  050%=      5-min Rain = 0
KGO1 300835Z 19018KT 26/15 A2978 RMK A01 T02610147  RH  049%=      5-min Rain = 0
KGO1 300836Z 19017KT 26/15 A2978 RMK A01 T02620147  RH  049%=      5-min Rain = 0
KGO1 300837Z 19016KT 26/15 A2978 RMK A01 T02620147  RH  049%=      5-min Rain = 0
KGO1 300838Z 19015KT 26/15 A2978 RMK A01 T02620148  RH  049%=      5-min Rain = 0
KGO1 300839Z 19016KT 26/15 A2977 RMK A01 T02610148  RH  050%=      5-min Rain = 0
KGO1 300840Z 19016KT 26/15 A2977 RMK A01 T02610148  RH  050%=      5-min Rain = 0
KGO1 300841Z 19014KT 26/15 A2977 RMK A01 T02620148  RH  050%=      5-min Rain = 0
KGO1 300842Z 19012KT 26/15 A2977 RMK A01 T02620149  RH  050%=      5-min Rain = 0
KGO1 300843Z 20014KT 26/15 A2977 RMK A01 T02600149  RH  050%=      5-min Rain = 0
KGO1 300844Z 20014KT 26/15 A2977 RMK A01 T02600149  RH  050%=      5-min Rain = 0
KGO1 300845Z 20012KT 26/15 A2977 RMK A01 T02600149  RH  050%=      5-min Rain = 0
KGO1 300846Z 20012KT 26/15 A2977 RMK A01 T02600150  RH  051%=      5-min Rain = 0
KGO1 300847Z 20012KT 26/15 A2977 RMK A01 T02590150  RH  051%=      5-min Rain = 0
KGO1 300848Z 20013KT 26/15 A2977 RMK A01 T02590150  RH  051%=      5-min Rain = 0
KGO1 300849Z 20013KT 26/15 A2977 RMK A01 T02600150  RH  051%=      5-min Rain = 0
KGO1 300850Z 20016KT 26/15 A2977 RMK A01 T02600150  RH  051%=      5-min Rain = 0
KGO1 300851Z 20015KT 26/15 A2977 RMK A01 T02610150  RH  050%=      5-min Rain = 0
KGO1 300852Z 20013KT 26/15 A2977 RMK A01 T02610150  RH  050%=      5-min Rain = 0
KGO1 300853Z 20014KT 26/15 A2977 RMK A01 T02610150  RH  050%=      5-min Rain = 0
KGO1 300854Z 20015KT 26/15 A2977 RMK A01 T02610150  RH  050%=      5-min Rain = 0
KGO1 300855Z 20012KT 26/15 A2977 RMK A01 T02630151  RH  050%=      5-min Rain = 0
KGO1 300856Z 20014G19KT 26/15 A2977 RMK A01 T02620151  RH  050%=      5-min Rain = 0
KGO1 300857Z 20015G21KT 26/15 A2977 RMK A01 T02610151  RH  051%=      5-min Rain = 0
KGO1 300858Z 20015KT 26/15 A2977 RMK A01 T02620152  RH  051%=      5-min Rain = 0
KGO1 300859Z 19015KT 26/15 A2977 RMK A01 T02630152  RH  050%=      5-min Rain = 0
KGO1 300900Z 20014KT 26/15 A2977 RMK A01 T02630152  RH  050%=      5-min Rain = 0
KGO1 300901Z 20014KT 26/15 A2977 RMK A01 T02620152  RH  051%=      5-min Rain = 0
KGO1 300902Z 19013KT 26/15 A2977 RMK A01 T02620152  RH  051%=      5-min Rain = 0
KGO1 300903Z 20018G23KT 26/15 A2977 RMK A01 T02620153  RH  051%=      5-min Rain = 0
KGO1 300904Z 20017KT 26/15 A2977 RMK A01 T02630153  RH  051%=      5-min Rain = 0
KGO1 300905Z 20016KT 26/15 A2977 RMK A01 T02630153  RH  051%=      5-min Rain = 0
KGO1 300906Z 20015KT 26/15 A2977 RMK A01 T02630154  RH  051%=      5-min Rain = 0
KGO1 300907Z 21015KT 26/15 A2977 RMK A01 T02630154  RH  051%=      5-min Rain = 0
KGO1 300908Z 20015G20KT 26/15 A2977 RMK A01 T02630154  RH  051%=      5-min Rain = 0
KGO1 300909Z 20015KT 26/15 A2977 RMK A01 T02620154  RH  052%=      5-min Rain = 0
KGO1 300910Z 21016KT 26/16 A2977 RMK A01 T02620155  RH  052%=      5-min Rain = 0
KGO1 300911Z 20015KT 26/16 A2977 RMK A01 T02610155  RH  052%=      5-min Rain = 0
KGO1 300912Z 21015KT 26/16 A2977 RMK A01 T02620155  RH  052%=      5-min Rain = 0
KGO1 300913Z 21018KT 26/16 A2977 RMK A01 T02610155  RH  052%=      5-min Rain = 0
KGO1 300914Z 21017G23KT 26/16 A2977 RMK A01 T02620156  RH  052%=      5-min Rain = 0
KGO1 300915Z 22017G22KT 26/16 A2977 RMK A01 T02630156  RH  052%=      5-min Rain = 0
KGO1 300916Z 21014G19KT 26/16 A2977 RMK A01 T02620156  RH  052%=      5-min Rain = 0
KGO1 300917Z 21018G23KT 26/16 A2977 RMK A01 T02620156  RH  052%=      5-min Rain = 0
KGO1 300918Z 20015KT 26/16 A2977 RMK A01 T02620156  RH  052%=      5-min Rain = 0
KGO1 300919Z 21016G21KT 26/16 A2977 RMK A01 T02620156  RH  052%=      5-min Rain = 0
KGO1 300920Z 20017KT 26/16 A2977 RMK A01 T02620156  RH  052%=      5-min Rain = 0
KGO1 300921Z 21017KT 26/16 A2977 RMK A01 T02620156  RH  052%=      5-min Rain = 0
KGO1 300922Z 20014KT 26/16 A2977 RMK A01 T02620156  RH  052%=      5-min Rain = 0
KGO1 300923Z 20016KT 26/16 A2977 RMK A01 T02610156  RH  052%=      5-min Rain = 0
KGO1 300924Z 21016G21KT 26/16 A2977 RMK A01 T02610156  RH  052%=      5-min Rain = 0
KGO1 300925Z 21018KT 26/16 A2977 RMK A01 T02620155  RH  052%=      5-min Rain = 0
KGO1 300926Z 21016KT 26/16 A2977 RMK A01 T02620155  RH  052%=      5-min Rain = 0
KGO1 300927Z 20015KT 26/16 A2977 RMK A01 T02620155  RH  052%=      5-min Rain = 0
KGO1 300928Z 21015KT 26/16 A2977 RMK A01 T02610156  RH  052%=      5-min Rain = 0
KGO1 300929Z 20015KT 26/16 A2977 RMK A01 T02600156  RH  053%=      5-min Rain = 0
KGO1 300930Z 20015KT 26/16 A2977 RMK A01 T02600156  RH  053%=      5-min Rain = 0
KGO1 300931Z 20015G20KT 26/16 A2976 RMK A01 T02600156  RH  053%=      5-min Rain = 0
KGO1 300932Z 20017G22KT 26/16 A2976 RMK A01 T02600156  RH  053%=      5-min Rain = 0
KGO1 300933Z 21018KT 26/16 A2976 RMK A01 T02600155  RH  052%=      5-min Rain = 0
KGO1 300934Z 21017G22KT 26/16 A2976 RMK A01 T02600156  RH  052%=      5-min Rain = 0
KGO1 300935Z 21019KT 26/16 A2976 RMK A01 T02610156  RH  052%=      5-min Rain = 0
KGO1 300936Z 20017KT 26/16 A2976 RMK A01 T02610156  RH  052%=      5-min Rain = 0
KGO1 300937Z 20017KT 26/16 A2976 RMK A01 T02610156  RH  052%=      5-min Rain = 0
KGO1 300938Z 20015KT 26/16 A2976 RMK A01 T02610156  RH  052%=      5-min Rain = 0
KGO1 300939Z 20015KT 26/16 A2977 RMK A01 T02610156  RH  053%=      5-min Rain = 0
KGO1 300940Z 20016KT 26/16 A2977 RMK A01 T02600156  RH  053%=      5-min Rain = 0
KGO1 300941Z 20016KT 26/16 A2977 RMK A01 T02600157  RH  053%=      5-min Rain = 0
KGO1 300942Z 21014KT 26/16 A2977 RMK A01 T02600157  RH  053%=      5-min Rain = 0
KGO1 300943Z 20014KT 26/16 A2977 RMK A01 T02590157  RH  053%=      5-min Rain = 0
KGO1 300944Z 20015KT 26/16 A2977 RMK A01 T02580157  RH  053%=      5-min Rain = 0
KGO1 300945Z 21015KT 26/16 A2977 RMK A01 T02580157  RH  054%=      5-min Rain = 0
KGO1 300946Z 21016G21KT 26/16 A2977 RMK A01 T02580157  RH  054%=      5-min Rain = 0
KGO1 300947Z 21018KT 26/16 A2976 RMK A01 T02580157  RH  054%=      5-min Rain = 0
KGO1 300948Z 21016KT 26/16 A2976 RMK A01 T02590157  RH  053%=      5-min Rain = 0
KGO1 300949Z 21015KT 26/16 A2977 RMK A01 T02590157  RH  053%=      5-min Rain = 0
KGO1 300950Z 21016G21KT 26/16 A2977 RMK A01 T02590157  RH  053%=      5-min Rain = 0
KGO1 300951Z 21017KT 26/16 A2977 RMK A01 T02590157  RH  053%=      5-min Rain = 0
KGO1 300952Z 21013KT 26/16 A2977 RMK A01 T02590157  RH  053%=      5-min Rain = 0
KGO1 300953Z 21014KT 26/16 A2977 RMK A01 T02590157  RH  054%=      5-min Rain = 0
KGO1 300954Z 21016KT 26/16 A2977 RMK A01 T02570157  RH  054%=      5-min Rain = 0
KGO1 300955Z 21016G21KT 26/16 A2977 RMK A01 T02570157  RH  054%=      5-min Rain = 0
KGO1 300956Z 21016KT 26/16 A2977 RMK A01 T02570157  RH  054%=      5-min Rain = 0
KGO1 300957Z 21016KT 26/16 A2977 RMK A01 T02570157  RH  054%=      5-min Rain = 0
KGO1 300958Z 21015KT 26/16 A2977 RMK A01 T02570157  RH  054%=      5-min Rain = 0
KGO1 300959Z 21017KT 26/16 A2977 RMK A01 T02570158  RH  054%=      5-min Rain = 0
KGO1 301000Z 21020KT 26/16 A2977 RMK A01 T02570157  RH  054%=      5-min Rain = 0
KGO1 301001Z 21016G21KT 26/16 A2977 RMK A01 T02580157  RH  054%=      5-min Rain = 0
KGO1 301002Z 21015KT 26/16 A2977 RMK A01 T02580158  RH  054%=      5-min Rain = 0
KGO1 301003Z 21016KT 26/16 A2977 RMK A01 T02580158  RH  054%=      5-min Rain = 0
KGO1 301004Z 21016KT 26/16 A2977 RMK A01 T02570158  RH  054%=      5-min Rain = 0
KGO1 301005Z 21014G19KT 26/16 A2977 RMK A01 T02570158  RH  054%=      5-min Rain = 0
KGO1 301006Z 21014KT 26/16 A2977 RMK A01 T02560158  RH  055%=      5-min Rain = 0
KGO1 301007Z 21016KT 26/16 A2977 RMK A01 T02560158  RH  055%=      5-min Rain = 0
KGO1 301008Z 21017KT 26/16 A2977 RMK A01 T02550157  RH  055%=      5-min Rain = 0
KGO1 301009Z 21019KT 26/16 A2977 RMK A01 T02560157  RH  054%=      5-min Rain = 0
KGO1 301010Z 21015KT 26/16 A2977 RMK A01 T02570157  RH  054%=      5-min Rain = 0
KGO1 301011Z 21017KT 26/16 A2977 RMK A01 T02570157  RH  054%=      5-min Rain = 0
KGO1 301012Z 21017KT 26/16 A2977 RMK A01 T02560157  RH  054%=      5-min Rain = 0
KGO1 301013Z 21018KT 26/16 A2977 RMK A01 T02570157  RH  054%=      5-min Rain = 0
KGO1 301014Z 21017KT 26/16 A2976 RMK A01 T02570157  RH  054%=      5-min Rain = 0
KGO1 301015Z 21016KT 26/16 A2976 RMK A01 T02570157  RH  054%=      5-min Rain = 0
KGO1 301016Z 22016KT 26/16 A2976 RMK A01 T02570157  RH  054%=      5-min Rain = 0
KGO1 301017Z 22015KT 26/16 A2976 RMK A01 T02570158  RH  054%=      5-min Rain = 0
KGO1 301018Z 22019KT 26/16 A2976 RMK A01 T02570157  RH  054%=      5-min Rain = 0
KGO1 301019Z 22016KT 26/16 A2976 RMK A01 T02580158  RH  054%=      5-min Rain = 0
KGO1 301020Z 22016KT 26/16 A2976 RMK A01 T02570158  RH  054%=      5-min Rain = 0
KGO1 301021Z 22015KT 26/16 A2976 RMK A01 T02570158  RH  054%=      5-min Rain = 0
KGO1 301022Z 22017KT 26/16 A2976 RMK A01 T02560158  RH  055%=      5-min Rain = 0
KGO1 301023Z 22016G21KT 26/16 A2976 RMK A01 T02560159  RH  055%=      5-min Rain = 0
KGO1 301024Z 22017G22KT 26/16 A2976 RMK A01 T02550159  RH  055%=      5-min Rain = 0
KGO1 301025Z 22020KT 26/16 A2976 RMK A01 T02550159  RH  055%=      5-min Rain = 0
KGO1 301026Z 22018KT 26/16 A2976 RMK A01 T02550159  RH  055%=      5-min Rain = 0
KGO1 301027Z 22018KT 26/16 A2976 RMK A01 T02550159  RH  055%=      5-min Rain = 0
KGO1 301028Z 22018KT 26/16 A2976 RMK A01 T02550159  RH  055%=      5-min Rain = 0
KGO1 301029Z 22017KT 26/16 A2976 RMK A01 T02550159  RH  055%=      5-min Rain = 0
KGO1 301030Z 22018KT 25/16 A2976 RMK A01 T02540160  RH  056%=      5-min Rain = 0
KGO1 301031Z 22017KT 25/16 A2976 RMK A01 T02540160  RH  056%=      5-min Rain = 0
KGO1 301032Z 22017G22KT 25/16 A2976 RMK A01 T02540160  RH  056%=      5-min Rain = 0
KGO1 301033Z 22022KT 25/16 A2976 RMK A01 T02530159  RH  056%=      5-min Rain = 0
KGO1 301034Z 22019KT 25/16 A2976 RMK A01 T02540159  RH  056%=      5-min Rain = 0
KGO1 301035Z 22021KT 25/16 A2976 RMK A01 T02540159  RH  056%=      5-min Rain = 0
KGO1 301036Z 23021G26KT 25/16 A2976 RMK A01 T02540159  RH  056%=      5-min Rain = 0
KGO1 301037Z 22019G24KT 25/16 A2976 RMK A01 T02540159  RH  056%=      5-min Rain = 0
KGO1 301038Z 22017KT 26/16 A2976 RMK A01 T02550160  RH  056%=      5-min Rain = 0
KGO1 301039Z 23022KT 25/16 A2976 RMK A01 T02540160  RH  056%=      5-min Rain = 0
KGO1 301040Z 22023KT 25/16 A2976 RMK A01 T02540160  RH  056%=      5-min Rain = 0
KGO1 301041Z 23024KT 26/16 A2976 RMK A01 T02550160  RH  056%=      5-min Rain = 0
KGO1 301042Z 22024KT 26/16 A2976 RMK A01 T02560160  RH  056%=      5-min Rain = 0
KGO1 301043Z 23023G29KT 26/16 A2976 RMK A01 T02560161  RH  056%=      5-min Rain = 0
KGO1 301044Z 23024G29KT 26/16 A2976 RMK A01 T02560162  RH  056%=      5-min Rain = 0
KGO1 301045Z 22022KT 26/16 A2976 RMK A01 T02560162  RH  056%=      5-min Rain = 0
KGO1 301046Z 23025KT 26/16 A2976 RMK A01 T02550162  RH  056%=      5-min Rain = 0
KGO1 301047Z 23023G28KT 26/16 A2976 RMK A01 T02550163  RH  057%=      5-min Rain = 0
KGO1 301048Z 23024KT 26/16 A2976 RMK A01 T02550163  RH  057%=      5-min Rain = 0
KGO1 301049Z 23023KT 26/16 A2976 RMK A01 T02550163  RH  057%=      5-min Rain = 0
KGO1 301050Z 23025KT 26/16 A2976 RMK A01 T02550163  RH  057%=      5-min Rain = 0
KGO1 301051Z 23021KT 25/16 A2976 RMK A01 T02540163  RH  057%=      5-min Rain = 0
KGO1 301052Z 23023G30KT 25/16 A2976 RMK A01 T02540163  RH  057%=      5-min Rain = 0
KGO1 301053Z 22025KT 25/16 A2976 RMK A01 T02530162  RH  057%=      5-min Rain = 0
KGO1 301054Z 23023KT 25/16 A2976 RMK A01 T02540162  RH  057%=      5-min Rain = 0
KGO1 301055Z 23022KT 25/16 A2976 RMK A01 T02540163  RH  057%=      5-min Rain = 0
KGO1 301056Z 23021KT 25/16 A2976 RMK A01 T02530163  RH  057%=      5-min Rain = 0
KGO1 301057Z 23021G26KT 25/16 A2976 RMK A01 T02530163  RH  057%=      5-min Rain = 0
KGO1 301058Z 23022KT 25/16 A2976 RMK A01 T02520163  RH  058%=      5-min Rain = 0
KGO1 301059Z 23022KT 25/16 A2976 RMK A01 T02520163  RH  058%=      5-min Rain = 0
KGO1 301100Z 23022KT 25/16 A2976 RMK A01 T02520164  RH  058%=      5-min Rain = 0
KGO1 301101Z 23022G27KT 25/16 A2976 RMK A01 T02520163  RH  058%=      5-min Rain = 0
KGO1 301102Z 23024KT 25/16 A2976 RMK A01 T02520163  RH  058%=      5-min Rain = 0
KGO1 301103Z 23024KT 25/16 A2976 RMK A01 T02530164  RH  058%=      5-min Rain = 0
KGO1 301104Z 23022KT 25/16 A2976 RMK A01 T02530164  RH  058%=      5-min Rain = 0
KGO1 301105Z 23021G26KT 25/16 A2976 RMK A01 T02520164  RH  058%=      5-min Rain = 0
KGO1 301106Z 23024KT 25/16 A2976 RMK A01 T02510164  RH  058%=      5-min Rain = 0
KGO1 301107Z 23024KT 25/16 A2976 RMK A01 T02510164  RH  058%=      5-min Rain = 0
KGO1 301108Z 23023KT 25/16 A2976 RMK A01 T02520164  RH  058%=      5-min Rain = 0
KGO1 301109Z 23023G28KT 25/16 A2976 RMK A01 T02520164  RH  058%=      5-min Rain = 0
KGO1 301110Z 23025G30KT 25/16 A2976 RMK A01 T02520164  RH  058%=      5-min Rain = 0
KGO1 301111Z 23022KT 25/16 A2976 RMK A01 T02520164  RH  058%=      5-min Rain = 0
KGO1 301112Z 23020G26KT 25/17 A2976 RMK A01 T02520165  RH  058%=      5-min Rain = 0
KGO1 301113Z 23024KT 25/17 A2976 RMK A01 T02510165  RH  059%=      5-min Rain = 0
KGO1 301114Z 23022G27KT 25/17 A2976 RMK A01 T02510165  RH  059%=      5-min Rain = 0
KGO1 301115Z 23025KT 25/17 A2976 RMK A01 T02510165  RH  059%=      5-min Rain = 0
KGO1 301116Z 23024G29KT 25/16 A2976 RMK A01 T02510164  RH  059%=      5-min Rain = 0
KGO1 301117Z 23023KT 25/16 A2976 RMK A01 T02510164  RH  058%=      5-min Rain = 0
KGO1 301118Z 23022KT 25/16 A2976 RMK A01 T02510164  RH  058%=      5-min Rain = 0
KGO1 301119Z 23023KT 25/16 A2976 RMK A01 T02520164  RH  058%=      5-min Rain = 0
KGO1 301120Z 23025G32KT 25/16 A2977 RMK A01 T02510164  RH  058%=      5-min Rain = 0
KGO1 301121Z 23022KT 25/16 A2977 RMK A01 T02510164  RH  058%=      5-min Rain = 0
KGO1 301122Z 23021G27KT 25/17 A2977 RMK A01 T02510165  RH  059%=      5-min Rain = 0
KGO1 301123Z 23024KT 25/17 A2977 RMK A01 T02500165  RH  059%=      5-min Rain = 0
KGO1 301124Z 23021G26KT 25/17 A2977 RMK A01 T02500165  RH  059%=      5-min Rain = 0
KGO1 301125Z 23022KT 25/17 A2977 RMK A01 T02490165  RH  060%=      5-min Rain = 0
KGO1 301126Z 23024KT 25/17 A2977 RMK A01 T02490166  RH  060%=      5-min Rain = 0
KGO1 301127Z 23024KT 25/17 A2977 RMK A01 T02490165  RH  060%=      5-min Rain = 0
KGO1 301128Z 23023KT 25/17 A2977 RMK A01 T02490165  RH  060%=      5-min Rain = 0
KGO1 301129Z 23022KT 25/17 A2977 RMK A01 T02500166  RH  060%=      5-min Rain = 0
KGO1 301130Z 23021KT 25/17 A2977 RMK A01 T02490166  RH  060%=      5-min Rain = 0
KGO1 301131Z 23022KT 25/17 A2977 RMK A01 T02490166  RH  060%=      5-min Rain = 0
KGO1 301132Z 23022KT 25/17 A2977 RMK A01 T02490167  RH  060%=      5-min Rain = 0
KGO1 301133Z 23020KT 25/17 A2977 RMK A01 T02480167  RH  060%=      5-min Rain = 0
KGO1 301134Z 23022G27KT 25/17 A2977 RMK A01 T02480167  RH  061%=      5-min Rain = 0
KGO1 301135Z 23020KT 25/17 A2977 RMK A01 T02470167  RH  061%=      5-min Rain = 0
KGO1 301136Z 23018KT 25/17 A2977 RMK A01 T02470167  RH  061%=      5-min Rain = 0
KGO1 301137Z 23021KT 25/17 A2977 RMK A01 T02460167  RH  061%=      5-min Rain = 0
KGO1 301138Z 23019G24KT 25/17 A2977 RMK A01 T02450167  RH  062%=      5-min Rain = 0
KGO1 301139Z 23017KT 25/17 A2977 RMK A01 T02450167  RH  062%=      5-min Rain = 0
KGO1 301140Z 23018KT 24/17 A2977 RMK A01 T02440167  RH  062%=      5-min Rain = 0
KGO1 301141Z 23017KT 24/17 A2977 RMK A01 T02440167  RH  062%=      5-min Rain = 0
KGO1 301142Z 23019G24KT 24/17 A2977 RMK A01 T02430166  RH  062%=      5-min Rain = 0
KGO1 301143Z 23019KT 24/17 A2977 RMK A01 T02430166  RH  062%=      5-min Rain = 0
KGO1 301144Z 23019KT 24/17 A2977 RMK A01 T02440165  RH  062%=      5-min Rain = 0
KGO1 301145Z 23020G26KT 24/17 A2977 RMK A01 T02440165  RH  062%=      5-min Rain = 0
KGO1 301146Z 23020G26KT 24/17 A2977 RMK A01 T02440165  RH  061%=      5-min Rain = 0
KGO1 301147Z 23020KT 24/17 A2977 RMK A01 T02440165  RH  061%=      5-min Rain = 0
KGO1 301148Z 23022KT 25/17 A2977 RMK A01 T02450165  RH  061%=      5-min Rain = 0
KGO1 301149Z 23022KT 25/17 A2977 RMK A01 T02460165  RH  061%=      5-min Rain = 0
KGO1 301150Z 23020G27KT 25/17 A2977 RMK A01 T02460165  RH  061%=      5-min Rain = 0
KGO1 301151Z 23021KT 25/16 A2977 RMK A01 T02460164  RH  060%=      5-min Rain = 0
KGO1 301152Z 23018G23KT 25/17 A2977 RMK A01 T02460165  RH  061%=      5-min Rain = 0
KGO1 301153Z 23021KT 25/17 A2977 RMK A01 T02450165  RH  061%=      5-min Rain = 0
KGO1 301154Z 23020KT 25/16 A2977 RMK A01 T02450164  RH  061%=      5-min Rain = 0
KGO1 301155Z 23021KT 25/16 A2977 RMK A01 T02450164  RH  061%=      5-min Rain = 0
KGO1 301156Z 23021G27KT 25/16 A2977 RMK A01 T02450164  RH  060%=      5-min Rain = 0
KGO1 301157Z 23018KT 25/17 A2977 RMK A01 T02460165  RH  060%=      5-min Rain = 0
KGO1 301158Z 23019KT 25/17 A2977 RMK A01 T02450165  RH  061%=      5-min Rain = 0
KGO1 301159Z 23020KT 25/17 A2977 RMK A01 T02450165  RH  061%=      5-min Rain = 0
KGO1 301200Z 23020G26KT 25/17 A2977 RMK A01 T02450165  RH  061%=      5-min Rain = 0
KGO1 301201Z 23020KT 25/17 A2977 RMK A01 T02450165  RH  061%=      5-min Rain = 0
KGO1 301202Z 23019KT 25/17 A2977 RMK A01 T02450165  RH  061%=      5-min Rain = 0
KGO1 301203Z 23020KT 25/17 A2977 RMK A01 T02450165  RH  061%=      5-min Rain = 0
KGO1 301204Z 23021KT 25/17 A2977 RMK A01 T02450165  RH  061%=      5-min Rain = 0
KGO1 301205Z 23019KT 25/17 A2977 RMK A01 T02460165  RH  061%=      5-min Rain = 0
KGO1 301206Z 23022KT 25/17 A2977 RMK A01 T02460165  RH  061%=      5-min Rain = 0
KGO1 301207Z 23017KT 25/17 A2977 RMK A01 T02460166  RH  061%=      5-min Rain = 0
KGO1 301208Z 23018G24KT 25/17 A2977 RMK A01 T02450166  RH  061%=      5-min Rain = 0
KGO1 301209Z 23018KT 25/17 A2977 RMK A01 T02450166  RH  061%=      5-min Rain = 0
KGO1 301210Z 23018KT 25/17 A2977 RMK A01 T02450165  RH  061%=      5-min Rain = 0
KGO1 301211Z 23023KT 25/17 A2977 RMK A01 T02450165  RH  061%=      5-min Rain = 0
KGO1 301212Z 23019G24KT 25/17 A2977 RMK A01 T02450165  RH  061%=      5-min Rain = 0
KGO1 301213Z 23021KT 25/17 A2977 RMK A01 T02460165  RH  061%=      5-min Rain = 0
KGO1 301214Z 23019KT 25/17 A2977 RMK A01 T02460165  RH  061%=      5-min Rain = 0
KGO1 301215Z 23020KT 25/17 A2978 RMK A01 T02460165  RH  061%=      5-min Rain = 0
KGO1 301216Z 23021KT 25/17 A2977 RMK A01 T02460166  RH  061%=      5-min Rain = 0
KGO1 301217Z 23019G24KT 25/17 A2977 RMK A01 T02460165  RH  061%=      5-min Rain = 0
KGO1 301218Z 23018KT 25/17 A2978 RMK A01 T02470166  RH  061%=      5-min Rain = 0
KGO1 301219Z 23019KT 25/17 A2978 RMK A01 T02460166  RH  061%=      5-min Rain = 0
KGO1 301220Z 23021G26KT 25/17 A2978 RMK A01 T02460166  RH  061%=      5-min Rain = 0
KGO1 301221Z 23019G24KT 25/17 A2978 RMK A01 T02460166  RH  061%=      5-min Rain = 0
KGO1 301222Z 23019KT 25/17 A2978 RMK A01 T02470167  RH  061%=      5-min Rain = 0
KGO1 301223Z 23020KT 25/17 A2978 RMK A01 T02470167  RH  061%=      5-min Rain = 0
KGO1 301224Z 23021KT 25/17 A2978 RMK A01 T02460166  RH  061%=      5-min Rain = 0
KGO1 301225Z 23021KT 25/17 A2978 RMK A01 T02470167  RH  061%=      5-min Rain = 0
KGO1 301226Z 23019KT 25/17 A2978 RMK A01 T02470166  RH  061%=      5-min Rain = 0
KGO1 301227Z 23021KT 25/17 A2978 RMK A01 T02470166  RH  061%=      5-min Rain = 0
KGO1 301228Z 23021KT 25/17 A2978 RMK A01 T02470166  RH  061%=      5-min Rain = 0
KGO1 301229Z 23019KT 25/17 A2978 RMK A01 T02480166  RH  061%=      5-min Rain = 0
KGO1 301230Z 23018G23KT 25/17 A2978 RMK A01 T02480167  RH  061%=      5-min Rain = 0
KGO1 301231Z 23017KT 25/17 A2978 RMK A01 T02480167  RH  061%=      5-min Rain = 0
KGO1 301232Z 23020KT 25/17 A2978 RMK A01 T02470167  RH  061%=      5-min Rain = 0
KGO1 301233Z 23019KT 25/17 A2978 RMK A01 T02480167  RH  061%=      5-min Rain = 0
KGO1 301234Z 23019KT 25/17 A2978 RMK A01 T02470166  RH  061%=      5-min Rain = 0
KGO1 301235Z 23019KT 25/17 A2978 RMK A01 T02480166  RH  061%=      5-min Rain = 0
KGO1 301236Z 23018KT 25/17 A2978 RMK A01 T02480167  RH  061%=      5-min Rain = 0
KGO1 301237Z 23018KT 25/17 A2978 RMK A01 T02480167  RH  061%=      5-min Rain = 0
KGO1 301238Z 23017KT 25/17 A2978 RMK A01 T02480167  RH  061%=      5-min Rain = 0
KGO1 301239Z 23020KT 25/17 A2978 RMK A01 T02480167  RH  060%=      5-min Rain = 0
KGO1 301240Z 23019KT 25/17 A2978 RMK A01 T02480166  RH  060%=      5-min Rain = 0
KGO1 301241Z 23019KT 25/17 A2978 RMK A01 T02490167  RH  060%=      5-min Rain = 0
KGO1 301242Z 23018KT 25/17 A2978 RMK A01 T02490166  RH  060%=      5-min Rain = 0
KGO1 301243Z 23019KT 25/17 A2978 RMK A01 T02490166  RH  060%=      5-min Rain = 0
KGO1 301244Z 23019KT 25/17 A2978 RMK A01 T02490166  RH  060%=      5-min Rain = 0
KGO1 301245Z 24019KT 25/17 A2978 RMK A01 T02500166  RH  060%=      5-min Rain = 0
KGO1 301246Z 23019KT 25/17 A2978 RMK A01 T02500166  RH  060%=      5-min Rain = 0
KGO1 301247Z 23016KT 25/17 A2978 RMK A01 T02500166  RH  060%=      5-min Rain = 0
KGO1 301248Z 24019KT 25/17 A2979 RMK A01 T02500166  RH  060%=      5-min Rain = 0
KGO1 301249Z 23019KT 25/17 A2978 RMK A01 T02500166  RH  059%=      5-min Rain = 0
KGO1 301250Z 24019KT 25/17 A2979 RMK A01 T02500166  RH  059%=      5-min Rain = 0
KGO1 301251Z 23019KT 25/17 A2978 RMK A01 T02510166  RH  059%=      5-min Rain = 0
KGO1 301252Z 24018KT 25/17 A2979 RMK A01 T02510166  RH  059%=      5-min Rain = 0
KGO1 301253Z 24021KT 25/17 A2979 RMK A01 T02510165  RH  059%=      5-min Rain = 0
KGO1 301254Z 23019KT 25/17 A2979 RMK A01 T02520165  RH  059%=      5-min Rain = 0
KGO1 301255Z 24018KT 25/17 A2979 RMK A01 T02520165  RH  058%=      5-min Rain = 0
KGO1 301256Z 23019KT 25/17 A2979 RMK A01 T02520165  RH  058%=      5-min Rain = 0
KGO1 301257Z 24021G27KT 25/16 A2979 RMK A01 T02530164  RH  058%=      5-min Rain = 0
KGO1 301258Z 24022KT 25/16 A2979 RMK A01 T02530163  RH  057%=      5-min Rain = 0
KGO1 301259Z 23020G25KT 25/16 A2979 RMK A01 T02540163  RH  057%=      5-min Rain = 0
KGO1 301300Z 23022KT 25/16 A2979 RMK A01 T02540163  RH  057%=      5-min Rain = 0
KGO1 301301Z 23018KT 26/16 A2979 RMK A01 T02550163  RH  057%=      5-min Rain = 0
KGO1 301302Z 23023G28KT 26/16 A2979 RMK A01 T02550162  RH  057%=      5-min Rain = 0
KGO1 301303Z 23021G26KT 26/16 A2979 RMK A01 T02550162  RH  056%=      5-min Rain = 0
KGO1 301304Z 23023G28KT 26/16 A2979 RMK A01 T02560162  RH  056%=      5-min Rain = 0
KGO1 301305Z 23022KT 26/16 A2979 RMK A01 T02560161  RH  056%=      5-min Rain = 0
KGO1 301306Z 24020KT 26/16 A2979 RMK A01 T02560161  RH  056%=      5-min Rain = 0
KGO1 301307Z 24023KT 26/16 A2979 RMK A01 T02560161  RH  055%=      5-min Rain = 0
KGO1 301308Z 23024G29KT 26/16 A2979 RMK A01 T02560160  RH  055%=      5-min Rain = 0
KGO1 301309Z 23022KT 26/16 A2979 RMK A01 T02570160  RH  055%=      5-min Rain = 0
KGO1 301310Z 23022KT 26/16 A2979 RMK A01 T02570160  RH  055%=      5-min Rain = 0
KGO1 301311Z 23023KT 26/16 A2979 RMK A01 T02570159  RH  054%=      5-min Rain = 0
KGO1 301312Z 23022KT 26/16 A2979 RMK A01 T02580159  RH  054%=      5-min Rain = 0
KGO1 301313Z 24024KT 26/16 A2979 RMK A01 T02570160  RH  055%=      5-min Rain = 0
KGO1 301314Z 23025KT 26/16 A2979 RMK A01 T02580158  RH  054%=      5-min Rain = 0
KGO1 301315Z 23024KT 26/16 A2979 RMK A01 T02580158  RH  054%=      5-min Rain = 0
KGO1 301316Z 23022KT 26/16 A2979 RMK A01 T02590157  RH  053%=      5-min Rain = 0
KGO1 301317Z 24022KT 26/16 A2979 RMK A01 T02600157  RH  053%=      5-min Rain = 0
KGO1 301318Z 24023KT 26/16 A2979 RMK A01 T02600157  RH  053%=      5-min Rain = 0
KGO1 301319Z 24023KT 26/16 A2979 RMK A01 T02600155  RH  052%=      5-min Rain = 0
KGO1 301320Z 23020KT 26/16 A298 RMK A01 T02610156  RH  052%=      5-min Rain = 0
KGO1 301321Z 24017KT 26/16 A298 RMK A01 T02610158  RH  053%=      5-min Rain = 0
KGO1 301322Z 24020KT 26/16 A298 RMK A01 T02620156  RH  052%=      5-min Rain = 0
KGO1 301323Z 24021KT 26/16 A298 RMK A01 T02620155  RH  052%=      5-min Rain = 0
KGO1 301324Z 24024KT 26/15 A298 RMK A01 T02620153  RH  051%=      5-min Rain = 0
KGO1 301325Z 24021KT 26/16 A298 RMK A01 T02620155  RH  051%=      5-min Rain = 0
KGO1 301326Z 23023KT 26/15 A298 RMK A01 T02620152  RH  051%=      5-min Rain = 0
KGO1 301327Z 24022KT 26/15 A298 RMK A01 T02630152  RH  051%=      5-min Rain = 0
KGO1 301328Z 23020KT 26/15 A298 RMK A01 T02640154  RH  051%=      5-min Rain = 0
KGO1 301329Z 23019KT 26/15 A298 RMK A01 T02640154  RH  051%=      5-min Rain = 0
KGO1 301330Z 24017KT 27/15 A298 RMK A01 T02650154  RH  051%=      5-min Rain = 0
KGO1 301331Z 24016G22KT 27/15 A298 RMK A01 T02650154  RH  050%=      5-min Rain = 0
KGO1 301332Z 24020G25KT 27/15 A298 RMK A01 T02660151  RH  049%=      5-min Rain = 0
KGO1 301333Z 24020G25KT 27/15 A298 RMK A01 T02670150  RH  049%=      5-min Rain = 0
KGO1 301334Z 24021KT 27/15 A298 RMK A01 T02670148  RH  048%=      5-min Rain = 0
KGO1 301335Z 24022KT 27/15 A298 RMK A01 T02670148  RH  048%=      5-min Rain = 0
KGO1 301336Z 24017KT 27/15 A298 RMK A01 T02670150  RH  049%=      5-min Rain = 0
KGO1 301337Z 24020KT 27/15 A298 RMK A01 T02680150  RH  048%=      5-min Rain = 0
KGO1 301338Z 24022KT 27/15 A298 RMK A01 T02680148  RH  048%=      5-min Rain = 0
KGO1 301339Z 24018KT 27/15 A298 RMK A01 T02680149  RH  048%=      5-min Rain = 0
KGO1 301340Z 24019KT 27/15 A298 RMK A01 T02690150  RH  048%=      5-min Rain = 0
KGO1 301341Z 24017KT 27/15 A298 RMK A01 T02700149  RH  048%=      5-min Rain = 0
KGO1 301342Z 24017KT 27/15 A298 RMK A01 T02710151  RH  048%=      5-min Rain = 0
KGO1 301343Z 24022KT 27/15 A298 RMK A01 T02710146  RH  046%=      5-min Rain = 0
KGO1 301344Z 24022KT 27/14 A298 RMK A01 T02720144  RH  045%=      5-min Rain = 0
KGO1 301345Z 24021KT 27/14 A298 RMK A01 T02720144  RH  046%=      5-min Rain = 0
KGO1 301346Z 24018KT 27/15 A298 RMK A01 T02720145  RH  046%=      5-min Rain = 0
KGO1 301347Z 24019KT 27/14 A298 RMK A01 T02730144  RH  045%=      5-min Rain = 0
KGO1 301348Z 24020KT 27/15 A298 RMK A01 T02730145  RH  045%=      5-min Rain = 0
KGO1 301349Z 24019KT 27/15 A298 RMK A01 T02730146  RH  046%=      5-min Rain = 0
KGO1 301350Z 24019KT 27/15 A2981 RMK A01 T02740145  RH  045%=      5-min Rain = 0
KGO1 301351Z 24022KT 28/14 A2981 RMK A01 T02760141  RH  044%=      5-min Rain = 0
KGO1 301352Z 24023KT 28/14 A2981 RMK A01 T02760139  RH  043%=      5-min Rain = 0
KGO1 301353Z 24021KT 28/14 A298 RMK A01 T02760138  RH  043%=      5-min Rain = 0
KGO1 301354Z 24021G26KT 28/14 A2981 RMK A01 T02760138  RH  043%=      5-min Rain = 0
KGO1 301355Z 24020KT 28/14 A2981 RMK A01 T02770135  RH  042%=      5-min Rain = 0
KGO1 301356Z 24020KT 28/14 A2981 RMK A01 T02770135  RH  042%=      5-min Rain = 0
KGO1 301357Z 25016KT 28/14 A2981 RMK A01 T02780140  RH  043%=      5-min Rain = 0
KGO1 301358Z 24015KT 28/14 A2981 RMK A01 T02810141  RH  042%=      5-min Rain = 0
KGO1 301359Z 25017G22KT 28/14 A2981 RMK A01 T02820141  RH  042%=      5-min Rain = 0
KGO1 301400Z 25019KT 28/14 A2981 RMK A01 T02820137  RH  041%=      5-min Rain = 0
KGO1 301401Z 25020KT 28/14 A2981 RMK A01 T02820138  RH  041%=      5-min Rain = 0
KGO1 301402Z 25019G24KT 28/14 A2981 RMK A01 T02810138  RH  041%=      5-min Rain = 0
KGO1 301403Z 24021KT 28/14 A2981 RMK A01 T02810136  RH  041%=      5-min Rain = 0
KGO1 301404Z 24020KT 28/13 A2981 RMK A01 T02810134  RH  040%=      5-min Rain = 0
KGO1 301405Z 24021KT 28/14 A2981 RMK A01 T02820135  RH  040%=      5-min Rain = 0
KGO1 301406Z 25021KT 28/14 A2981 RMK A01 T02820135  RH  040%=      5-min Rain = 0
KGO1 301407Z 24020KT 28/13 A2981 RMK A01 T02820133  RH  040%=      5-min Rain = 0
KGO1 301408Z 25021KT 28/13 A2981 RMK A01 T02830131  RH  039%=      5-min Rain = 0
KGO1 301409Z 24019KT 28/13 A2981 RMK A01 T02830131  RH  039%=      5-min Rain = 0
KGO1 301410Z 24019KT 28/13 A2981 RMK A01 T02840134  RH  040%=      5-min Rain = 0
KGO1 301411Z 24021KT 29/13 A2981 RMK A01 T02850131  RH  039%=      5-min Rain = 0
KGO1 301412Z 25021KT 29/13 A2981 RMK A01 T02850126  RH  038%=      5-min Rain = 0
KGO1 301413Z 25019KT 29/12 A2981 RMK A01 T02860124  RH  037%=      5-min Rain = 0
KGO1 301414Z 25019KT 29/13 A2981 RMK A01 T02860130  RH  038%=      5-min Rain = 0
KGO1 301415Z 25020KT 29/13 A2981 RMK A01 T02880129  RH  038%=      5-min Rain = 0
KGO1 301416Z 25019G24KT 29/13 A2981 RMK A01 T02870128  RH  038%=      5-min Rain = 0
KGO1 301417Z 25021KT 29/13 A2981 RMK A01 T02870125  RH  037%=      5-min Rain = 0
KGO1 301418Z 26018G23KT 29/13 A2981 RMK A01 T02870125  RH  037%=      5-min Rain = 0
KGO1 301419Z 25019KT 29/13 A2981 RMK A01 T02890126  RH  037%=      5-min Rain = 0
KGO1 301420Z 25019G24KT 29/13 A2981 RMK A01 T02890129  RH  037%=      5-min Rain = 0
KGO1 301421Z 25017KT 29/13 A2981 RMK A01 T02890126  RH  037%=      5-min Rain = 0
KGO1 301422Z 26017KT 29/13 A2981 RMK A01 T02910126  RH  036%=      5-min Rain = 0
KGO1 301423Z 25018KT 29/13 A2981 RMK A01 T02910126  RH  036%=      5-min Rain = 0
KGO1 301424Z 25019KT 29/12 A2981 RMK A01 T02910124  RH  036%=      5-min Rain = 0
KGO1 301425Z 25016G21KT 29/13 A2981 RMK A01 T02920128  RH  036%=      5-min Rain = 0
KGO1 301426Z 25019KT 29/12 A2981 RMK A01 T02930117  RH  034%=      5-min Rain = 0
KGO1 301427Z 25020KT 29/12 A2981 RMK A01 T02940122  RH  035%=      5-min Rain = 0
KGO1 301428Z 25018KT 29/13 A2981 RMK A01 T02940125  RH  035%=      5-min Rain = 0
KGO1 301429Z 25016KT 29/13 A2981 RMK A01 T02940128  RH  036%=      5-min Rain = 0
KGO1 301430Z 25021KT 30/13 A2981 RMK A01 T02950125  RH  035%=      5-min Rain = 0
KGO1 301431Z 25019KT 30/12 A2981 RMK A01 T02960123  RH  035%=      5-min Rain = 0
KGO1 301432Z 26019KT 30/12 A2981 RMK A01 T02950118  RH  034%=      5-min Rain = 0
KGO1 301433Z 26019KT 30/12 A2981 RMK A01 T02960119  RH  033%=      5-min Rain = 0
KGO1 301434Z 25018KT 30/12 A2981 RMK A01 T02960123  RH  034%=      5-min Rain = 0
KGO1 301435Z 25018KT 30/12 A2981 RMK A01 T02970116  RH  033%=      5-min Rain = 0
KGO1 301436Z 25018KT 30/11 A2981 RMK A01 T02980114  RH  032%=      5-min Rain = 0
KGO1 301437Z 26016KT 30/12 A2981 RMK A01 T02990118  RH  033%=      5-min Rain = 0
KGO1 301438Z 25018KT 30/12 A2981 RMK A01 T03010119  RH  033%=      5-min Rain = 0
KGO1 301439Z 26020KT 30/11 A2981 RMK A01 T03010114  RH  031%=      5-min Rain = 0
KGO1 301440Z 26019KT 30/12 A2981 RMK A01 T03000115  RH  032%=      5-min Rain = 0
KGO1 301441Z 25020KT 30/11 A2982 RMK A01 T03000108  RH  031%=      5-min Rain = 0
KGO1 301442Z 26019KT 30/11 A2982 RMK A01 T03000107  RH  030%=      5-min Rain = 0
KGO1 301443Z 26018KT 30/11 A2981 RMK A01 T03010113  RH  031%=      5-min Rain = 0
KGO1 301444Z 25017KT 30/12 A2982 RMK A01 T03020116  RH  032%=      5-min Rain = 0
KGO1 301445Z 25018G23KT 30/11 A2982 RMK A01 T03040114  RH  031%=      5-min Rain = 0
KGO1 301446Z 25023KT 31/11 A2981 RMK A01 T03050107  RH  030%=      5-min Rain = 0
KGO1 301447Z 25022KT 30/11 A2982 RMK A01 T03040105  RH  029%=      5-min Rain = 0
KGO1 301448Z 25020KT 30/11 A2982 RMK A01 T03030106  RH  029%=      5-min Rain = 0
KGO1 301449Z 26020KT 30/11 A2982 RMK A01 T03040106  RH  029%=      5-min Rain = 0
KGO1 301450Z 26020KT 30/11 A2982 RMK A01 T03040106  RH  029%=      5-min Rain = 0
KGO1 301451Z 26020KT 30/11 A2982 RMK A01 T03040107  RH  030%=      5-min Rain = 0
KGO1 301452Z 25019KT 30/11 A2982 RMK A01 T03040108  RH  030%=      5-min Rain = 0
KGO1 301453Z 26019KT 31/11 A2982 RMK A01 T03050109  RH  030%=      5-min Rain = 0
KGO1 301454Z 25020KT 31/10 A2982 RMK A01 T03050104  RH  029%=      5-min Rain = 0
KGO1 301455Z 25018KT 31/10 A2982 RMK A01 T03050104  RH  029%=      5-min Rain = 0
KGO1 301456Z 25016KT 31/11 A2982 RMK A01 T03060106  RH  029%=      5-min Rain = 0
KGO1 301457Z 25017KT 31/11 A2982 RMK A01 T03080106  RH  029%=      5-min Rain = 0
KGO1 301458Z 25017KT 31/11 A2982 RMK A01 T03090106  RH  028%=      5-min Rain = 0
KGO1 301459Z 25017KT 31/10 A2982 RMK A01 T03100104  RH  028%=      5-min Rain = 0
KGO1 301500Z 26018KT 31/10 A2983 RMK A01 T03100101  RH  027%=      5-min Rain = 0
KGO1 301501Z 25016KT 31/10 A2983 RMK A01 T03100099  RH  027%=      5-min Rain = 0
KGO1 301502Z 25015KT 31/11 A2983 RMK A01 T03100106  RH  028%=      5-min Rain = 0
KGO1 301503Z 25017KT 31/11 A2983 RMK A01 T03120105  RH  028%=      5-min Rain = 0
KGO1 301504Z 25019KT 31/10 A2983 RMK A01 T03130097  RH  026%=      5-min Rain = 0
KGO1 301505Z 25017KT 31/10 A2983 RMK A01 T03120098  RH  027%=      5-min Rain = 0
KGO1 301506Z 24017KT 31/10 A2983 RMK A01 T03130099  RH  027%=      5-min Rain = 0
KGO1 301507Z 25018KT 31/10 A2983 RMK A01 T03130099  RH  027%=      5-min Rain = 0
KGO1 301508Z 26018KT 31/09 A2983 RMK A01 T03130090  RH  025%=      5-min Rain = 0
KGO1 301509Z 26015KT 31/09 A2983 RMK A01 T03140093  RH  026%=      5-min Rain = 0
KGO1 301510Z 25014KT 32/10 A2983 RMK A01 T03160100  RH  026%=      5-min Rain = 0
KGO1 301511Z 24017KT 32/10 A2983 RMK A01 T03180097  RH  026%=      5-min Rain = 0
KGO1 301512Z 24016KT 32/09 A2983 RMK A01 T03180094  RH  025%=      5-min Rain = 0
KGO1 301513Z 25012KT 32/10 A2983 RMK A01 T03170101  RH  026%=      5-min Rain = 0
KGO1 301514Z 26014G19KT 32/10 A2983 RMK A01 T03190101  RH  026%=      5-min Rain = 0
KGO1 301515Z 25012KT 32/10 A2983 RMK A01 T03200102  RH  026%=      5-min Rain = 0
KGO1 301516Z 25013KT 32/10 A2983 RMK A01 T03220096  RH  025%=      5-min Rain = 0
KGO1 301517Z 25014KT 32/10 A2983 RMK A01 T03210098  RH  025%=      5-min Rain = 0
KGO1 301518Z 25014KT 32/10 A2983 RMK A01 T03210095  RH  025%=      5-min Rain = 0
KGO1 301519Z 25015KT 32/09 A2983 RMK A01 T03210087  RH  023%=      5-min Rain = 0
KGO1 301520Z 26015KT 32/08 A2983 RMK A01 T03240084  RH  023%=      5-min Rain = 0
KGO1 301521Z 26017KT 32/09 A2983 RMK A01 T03230085  RH  023%=      5-min Rain = 0
KGO1 301522Z 25015KT 32/08 A2983 RMK A01 T03220081  RH  022%=      5-min Rain = 0
KGO1 301523Z 26010KT 32/09 A2983 RMK A01 T03220085  RH  023%=      5-min Rain = 0
KGO1 301524Z 25015KT 33/09 A2983 RMK A01 T03260087  RH  023%=      5-min Rain = 0
KGO1 301525Z 25016G22KT 33/09 A2983 RMK A01 T03260086  RH  023%=      5-min Rain = 0
KGO1 301526Z 26018KT 33/07 A2983 RMK A01 T03260074  RH  021%=      5-min Rain = 0
KGO1 301527Z 26017KT 32/07 A2983 RMK A01 T03240074  RH  021%=      5-min Rain = 0
KGO1 301528Z 26015KT 32/08 A2983 RMK A01 T03230079  RH  022%=      5-min Rain = 0
KGO1 301529Z 27013G19KT 33/08 A2983 RMK A01 T03250081  RH  022%=      5-min Rain = 0
KGO1 301530Z 27016KT 33/08 A2983 RMK A01 T03280077  RH  021%=      5-min Rain = 0
KGO1 301531Z 27015KT 33/07 A2983 RMK A01 T03290072  RH  020%=      5-min Rain = 0
KGO1 301532Z 26015KT 33/07 A2982 RMK A01 T03290069  RH  020%=      5-min Rain = 0
KGO1 301533Z 26015KT 33/07 A2982 RMK A01 T03290066  RH  020%=      5-min Rain = 0
KGO1 301534Z 26017KT 33/07 A2982 RMK A01 T03290068  RH  020%=      5-min Rain = 0
KGO1 301535Z 27015KT 33/07 A2982 RMK A01 T03280070  RH  020%=      5-min Rain = 0
KGO1 301536Z 27016KT 33/07 A2982 RMK A01 T03280065  RH  019%=      5-min Rain = 0
KGO1 301537Z 26016KT 33/07 A2982 RMK A01 T03280066  RH  020%=      5-min Rain = 0
KGO1 301538Z 25015G20KT 33/07 A2982 RMK A01 T03290074  RH  021%=      5-min Rain = 0
KGO1 301539Z 26019KT 33/07 A2982 RMK A01 T03310070  RH  020%=      5-min Rain = 0
KGO1 301540Z 26019KT 33/06 A2982 RMK A01 T03300060  RH  019%=      5-min Rain = 0
KGO1 301541Z 26017KT 33/06 A2982 RMK A01 T03280064  RH  019%=      5-min Rain = 0
KGO1 301542Z 26018KT 33/06 A2982 RMK A01 T03290063  RH  019%=      5-min Rain = 0
KGO1 301543Z 26018KT 33/06 A2982 RMK A01 T03300060  RH  018%=      5-min Rain = 0
KGO1 301544Z 26018KT 33/06 A2982 RMK A01 T03310058  RH  018%=      5-min Rain = 0
KGO1 301545Z 26017KT 33/06 A2982 RMK A01 T03300057  RH  018%=      5-min Rain = 0
KGO1 301546Z 26016KT 33/06 A2982 RMK A01 T03300062  RH  019%=      5-min Rain = 0
KGO1 301547Z 27017KT 33/06 A2982 RMK A01 T03310061  RH  019%=      5-min Rain = 0
KGO1 301548Z 26016KT 33/06 A2982 RMK A01 T03320062  RH  019%=      5-min Rain = 0
KGO1 301549Z 26015KT 33/06 A2982 RMK A01 T03330063  RH  019%=      5-min Rain = 0
KGO1 301550Z 26016KT 33/06 A2982 RMK A01 T03340061  RH  018%=      5-min Rain = 0
KGO1 301551Z 27017KT 34/06 A2982 RMK A01 T03350058  RH  018%=      5-min Rain = 0
KGO1 301552Z 28015KT 33/06 A2982 RMK A01 T03330061  RH  018%=      5-min Rain = 0
KGO1 301553Z 27015KT 33/06 A2982 RMK A01 T03330063  RH  019%=      5-min Rain = 0
KGO1 301554Z 27016KT 33/06 A2982 RMK A01 T03330063  RH  019%=      5-min Rain = 0
KGO1 301555Z 26013KT 34/07 A2982 RMK A01 T03360067  RH  019%=      5-min Rain = 0
KGO1 301556Z 27013KT 34/07 A2982 RMK A01 T03380066  RH  019%=      5-min Rain = 0
KGO1 301557Z 27014KT 34/07 A2982 RMK A01 T03390072  RH  019%=      5-min Rain = 0
KGO1 301558Z 27016KT 34/06 A2982 RMK A01 T03410060  RH  017%=      5-min Rain = 0
KGO1 301559Z 26016KT 34/06 A2982 RMK A01 T03380059  RH  018%=      5-min Rain = 0
KGO1 301600Z 26017KT 34/05 A2982 RMK A01 T03360054  RH  017%=      5-min Rain = 0
KGO1 301601Z 26016KT 34/06 A2983 RMK A01 T03350060  RH  018%=      5-min Rain = 0
KGO1 301602Z 26016KT 34/06 A2983 RMK A01 T03360056  RH  018%=      5-min Rain = 0
KGO1 301603Z 27014KT 34/06 A2983 RMK A01 T03350055  RH  017%=      5-min Rain = 0
KGO1 301604Z 27014KT 34/06 A2983 RMK A01 T03360055  RH  017%=      5-min Rain = 0
KGO1 301605Z 27015KT 34/06 A2983 RMK A01 T03370057  RH  017%=      5-min Rain = 0
KGO1 301606Z 26017KT 34/05 A2983 RMK A01 T03380048  RH  016%=      5-min Rain = 0
KGO1 301607Z 27015KT 34/05 A2983 RMK A01 T03380051  RH  017%=      5-min Rain = 0
KGO1 301608Z 28015KT 34/05 A2983 RMK A01 T03400051  RH  017%=      5-min Rain = 0
KGO1 301609Z 27014KT 34/06 A2983 RMK A01 T03420056  RH  017%=      5-min Rain = 0
KGO1 301610Z 26014KT 34/05 A2983 RMK A01 T03430053  RH  016%=      5-min Rain = 0
KGO1 301611Z 26014KT 34/05 A2983 RMK A01 T03430054  RH  017%=      5-min Rain = 0
KGO1 301612Z 26016KT 35/05 A2983 RMK A01 T03450053  RH  016%=      5-min Rain = 0
KGO1 301613Z 26015KT 34/05 A2983 RMK A01 T03440046  RH  016%=      5-min Rain = 0
KGO1 301614Z 26014KT 34/05 A2983 RMK A01 T03420045  RH  016%=      5-min Rain = 0
KGO1 301615Z 26015KT 34/05 A2983 RMK A01 T03420054  RH  017%=      5-min Rain = 0
KGO1 301616Z 26016KT 35/05 A2983 RMK A01 T03450046  RH  016%=      5-min Rain = 0
KGO1 301617Z 26014KT 34/05 A2983 RMK A01 T03440049  RH  016%=      5-min Rain = 0
KGO1 301618Z 26016KT 34/05 A2983 RMK A01 T03440045  RH  016%=      5-min Rain = 0
KGO1 301619Z 27012KT 34/04 A2983 RMK A01 T03440042  RH  015%=      5-min Rain = 0
KGO1 301620Z 26012KT 34/05 A2983 RMK A01 T03440047  RH  016%=      5-min Rain = 0
KGO1 301621Z 27012G18KT 35/06 A2983 RMK A01 T03470059  RH  017%=      5-min Rain = 0
KGO1 301622Z 27015KT 35/05 A2983 RMK A01 T03490051  RH  016%=      5-min Rain = 0
KGO1 301623Z 27016KT 35/05 A2983 RMK A01 T03470045  RH  015%=      5-min Rain = 0
KGO1 301624Z 26013KT 35/05 A2983 RMK A01 T03470048  RH  016%=      5-min Rain = 0
KGO1 301625Z 26013KT 35/05 A2983 RMK A01 T03480049  RH  016%=      5-min Rain = 0
KGO1 301626Z 26014KT 35/05 A2983 RMK A01 T03490053  RH  016%=      5-min Rain = 0
KGO1 301627Z 25013KT 35/05 A2984 RMK A01 T03490052  RH  016%=      5-min Rain = 0
KGO1 301628Z 26011KT 35/06 A2984 RMK A01 T03500055  RH  016%=      5-min Rain = 0
KGO1 301629Z 26014KT 35/05 A2984 RMK A01 T03510052  RH  016%=      5-min Rain = 0
KGO1 301630Z 26015KT 35/05 A2984 RMK A01 T03510053  RH  016%=      5-min Rain = 0
KGO1 301631Z 27013KT 35/05 A2984 RMK A01 T03500048  RH  015%=      5-min Rain = 0
KGO1 301632Z 26013KT 35/06 A2984 RMK A01 T03490056  RH  016%=      5-min Rain = 0
KGO1 301633Z 27012KT 35/05 A2984 RMK A01 T03510051  RH  016%=      5-min Rain = 0
KGO1 301634Z 26011KT 35/06 A2984 RMK A01 T03510055  RH  016%=      5-min Rain = 0
KGO1 301635Z 26012KT 35/05 A2984 RMK A01 T03530054  RH  016%=      5-min Rain = 0
KGO1 301636Z 25015KT 35/05 A2984 RMK A01 T03530048  RH  015%=      5-min Rain = 0
KGO1 301637Z 26012KT 35/05 A2984 RMK A01 T03520048  RH  015%=      5-min Rain = 0
KGO1 301638Z 26010KT 35/05 A2984 RMK A01 T03520047  RH  015%=      5-min Rain = 0
KGO1 301639Z 27011KT 35/05 A2984 RMK A01 T03520052  RH  016%=      5-min Rain = 0
KGO1 301640Z 27010KT 35/06 A2984 RMK A01 T03530056  RH  016%=      5-min Rain = 0
KGO1 301641Z 26013KT 36/05 A2984 RMK A01 T03550047  RH  015%=      5-min Rain = 0
KGO1 301642Z 26013KT 35/05 A2984 RMK A01 T03540045  RH  015%=      5-min Rain = 0
KGO1 301643Z 25014KT 35/05 A2984 RMK A01 T03540048  RH  015%=      5-min Rain = 0
KGO1 301644Z 25014KT 36/04 A2984 RMK A01 T03550044  RH  014%=      5-min Rain = 0
KGO1 301645Z 25011KT 35/04 A2984 RMK A01 T03540040  RH  014%=      5-min Rain = 0
KGO1 301646Z 26010KT 35/04 A2984 RMK A01 T03520044  RH  015%=      5-min Rain = 0
KGO1 301647Z 27011KT 36/05 A2984 RMK A01 T03550051  RH  015%=      5-min Rain = 0
KGO1 301648Z 25012KT 36/05 A2984 RMK A01 T03570052  RH  015%=      5-min Rain = 0
KGO1 301649Z 25014KT 36/04 A2984 RMK A01 T03580042  RH  014%=      5-min Rain = 0
KGO1 301650Z 25011KT 35/04 A2984 RMK A01 T03540037  RH  014%=      5-min Rain = 0
KGO1 301651Z 25010KT 35/04 A2984 RMK A01 T03510039  RH  014%=      5-min Rain = 0
KGO1 301652Z 26012KT 35/05 A2984 RMK A01 T03520047  RH  015%=      5-min Rain = 0
KGO1 301653Z 27010KT 36/05 A2984 RMK A01 T03550048  RH  015%=      5-min Rain = 0
KGO1 301654Z 27008KT 36/04 A2984 RMK A01 T03560040  RH  014%=      5-min Rain = 0
KGO1 301655Z 25013KT 36/04 A2984 RMK A01 T03560043  RH  014%=      5-min Rain = 0
KGO1 301656Z 25011G16KT 36/04 A2984 RMK A01 T03570038  RH  014%=      5-min Rain = 0
KGO1 301657Z 26009KT 36/04 A2984 RMK A01 T03570036  RH  014%=      5-min Rain = 0
KGO1 301658Z 25014KT 36/04 A2984 RMK A01 T03580040  RH  014%=      5-min Rain = 0
KGO1 301659Z 24015KT 36/04 A2984 RMK A01 T03580041  RH  014%=      5-min Rain = 0
KGO1 301700Z 25015KT 36/04 A2984 RMK A01 T03600042  RH  014%=      5-min Rain = 0
KGO1 301701Z 25013KT 36/04 A2984 RMK A01 T03620041  RH  014%=      5-min Rain = 0
KGO1 301702Z 26011KT 36/04 A2984 RMK A01 T03610038  RH  013%=      5-min Rain = 0
KGO1 301703Z 24010KT 36/04 A2984 RMK A01 T03600041  RH  014%=      5-min Rain = 0
KGO1 301704Z 25014KT 36/04 A2984 RMK A01 T03610040  RH  014%=      5-min Rain = 0
KGO1 301705Z 26011G16KT 36/05 A2984 RMK A01 T03640052  RH  014%=      5-min Rain = 0
KGO1 301706Z 27011KT 37/04 A2984 RMK A01 T03680044  RH  014%=      5-min Rain = 0
KGO1 301707Z 27012KT 37/04 A2984 RMK A01 T03650043  RH  014%=      5-min Rain = 0
KGO1 301708Z 26010KT 36/04 A2984 RMK A01 T03620038  RH  013%=      5-min Rain = 0
KGO1 301709Z 26010KT 36/04 A2984 RMK A01 T03600037  RH  013%=      5-min Rain = 0
KGO1 301710Z 25011KT 36/04 A2984 RMK A01 T03590039  RH  014%=      5-min Rain = 0
KGO1 301711Z 25012G17KT 36/05 A2984 RMK A01 T03610050  RH  015%=      5-min Rain = 0
KGO1 301712Z 25016KT 36/04 A2984 RMK A01 T03640037  RH  013%=      5-min Rain = 0
KGO1 301713Z 25015KT 36/04 A2984 RMK A01 T03630041  RH  014%=      5-min Rain = 0
KGO1 301714Z 27012KT 36/04 A2984 RMK A01 T03630041  RH  014%=      5-min Rain = 0
KGO1 301715Z 27015KT 36/04 A2984 RMK A01 T03630042  RH  014%=      5-min Rain = 0
KGO1 301716Z 26014KT 36/04 A2984 RMK A01 T03620038  RH  013%=      5-min Rain = 0
KGO1 301717Z 26013KT 36/04 A2984 RMK A01 T03610042  RH  014%=      5-min Rain = 0
KGO1 301718Z 26011KT 36/04 A2984 RMK A01 T03620040  RH  014%=      5-min Rain = 0
KGO1 301719Z 26013KT 36/04 A2984 RMK A01 T03630041  RH  014%=      5-min Rain = 0
KGO1 301720Z 26013KT 36/04 A2984 RMK A01 T03640044  RH  014%=      5-min Rain = 0
KGO1 301721Z 27012KT 36/04 A2984 RMK A01 T03640042  RH  014%=      5-min Rain = 0
KGO1 301722Z 27009KT 36/04 A2984 RMK A01 T03640042  RH  014%=      5-min Rain = 0
KGO1 301723Z 26010KT 36/05 A2984 RMK A01 T03640045  RH  014%=      5-min Rain = 0
KGO1 301724Z 25012KT 37/05 A2983 RMK A01 T03650046  RH  014%=      5-min Rain = 0
KGO1 301725Z 25015KT 37/04 A2983 RMK A01 T03660044  RH  014%=      5-min Rain = 0
KGO1 301726Z 27015KT 37/04 A2983 RMK A01 T03660042  RH  013%=      5-min Rain = 0
KGO1 301727Z 26012KT 36/04 A2983 RMK A01 T03640043  RH  014%=      5-min Rain = 0
KGO1 301728Z 26015KT 36/04 A2983 RMK A01 T03640042  RH  014%=      5-min Rain = 0
KGO1 301729Z 25014KT 36/04 A2983 RMK A01 T03640038  RH  013%=      5-min Rain = 0
KGO1 301730Z 24013KT 36/04 A2983 RMK A01 T03640042  RH  014%=      5-min Rain = 0
KGO1 301731Z 26015KT 37/04 A2983 RMK A01 T03660044  RH  014%=      5-min Rain = 0
KGO1 301732Z 27016KT 37/05 A2983 RMK A01 T03680046  RH  014%=      5-min Rain = 0
KGO1 301733Z 26016KT 37/05 A2983 RMK A01 T03680048  RH  014%=      5-min Rain = 0
KGO1 301734Z 26016KT 37/04 A2983 RMK A01 T03690038  RH  013%=      5-min Rain = 0
KGO1 301735Z 26014KT 37/04 A2983 RMK A01 T03660042  RH  013%=      5-min Rain = 0
KGO1 301736Z 25013KT 37/04 A2983 RMK A01 T03660040  RH  013%=      5-min Rain = 0
KGO1 301737Z 25010KT 37/04 A2983 RMK A01 T03670040  RH  013%=      5-min Rain = 0
KGO1 301738Z 25010KT 37/04 A2983 RMK A01 T03680038  RH  013%=      5-min Rain = 0
KGO1 301739Z 25009KT 37/04 A2983 RMK A01 T03680040  RH  013%=      5-min Rain = 0
KGO1 301740Z 26010KT 37/04 A2983 RMK A01 T03690042  RH  013%=      5-min Rain = 0
KGO1 301741Z 25010KT 37/04 A2983 RMK A01 T03700038  RH  013%=      5-min Rain = 0
KGO1 301742Z 27012KT 37/05 A2983 RMK A01 T03680049  RH  014%=      5-min Rain = 0
KGO1 301743Z 27012G18KT 37/04 A2983 RMK A01 T03690040  RH  013%=      5-min Rain = 0
KGO1 301744Z 26015KT 37/05 A2983 RMK A01 T03670046  RH  014%=      5-min Rain = 0
KGO1 301745Z 25018G23KT 37/05 A2983 RMK A01 T03690049  RH  014%=      5-min Rain = 0
KGO1 301746Z 24017KT 37/05 A2983 RMK A01 T03720045  RH  013%=      5-min Rain = 0
KGO1 301747Z 25016KT 37/05 A2983 RMK A01 T03730045  RH  013%=      5-min Rain = 0
KGO1 301748Z 25014KT 37/04 A2984 RMK A01 T03730043  RH  013%=      5-min Rain = 0
KGO1 301749Z 25010KT 37/04 A2984 RMK A01 T03730044  RH  013%=      5-min Rain = 0
KGO1 301750Z 25010KT 37/04 A2983 RMK A01 T03720036  RH  013%=      5-min Rain = 0
KGO1 301751Z 27013KT 37/04 A2983 RMK A01 T03690035  RH  013%=      5-min Rain = 0
KGO1 301752Z 24009KT 37/03 A2983 RMK A01 T03650031  RH  012%=      5-min Rain = 0
KGO1 301753Z 23010KT 36/03 A2983 RMK A01 T03640034  RH  013%=      5-min Rain = 0
KGO1 301754Z 26012G18KT 37/04 A2983 RMK A01 T03660042  RH  013%=      5-min Rain = 0
KGO1 301755Z 25013KT 37/04 A2983 RMK A01 T03690041  RH  013%=      5-min Rain = 0
KGO1 301756Z 25012KT 37/04 A2983 RMK A01 T03710041  RH  013%=      5-min Rain = 0
KGO1 301757Z 25009KT 37/04 A2983 RMK A01 T03710036  RH  013%=      5-min Rain = 0
KGO1 301758Z 24010KT 37/04 A2983 RMK A01 T03700038  RH  013%=      5-min Rain = 0
KGO1 301759Z 25019KT 37/04 A2983 RMK A01 T03720044  RH  013%=      5-min Rain = 0
KGO1 301800Z 25019KT 37/04 A2983 RMK A01 T03740038  RH  012%=      5-min Rain = 0
KGO1 301801Z 25015KT 37/04 A2983 RMK A01 T03730036  RH  012%=      5-min Rain = 0
KGO1 301802Z 24016KT 37/03 A2983 RMK A01 T03710033  RH  012%=      5-min Rain = 0
KGO1 301803Z 24018KT 37/04 A2983 RMK A01 T03700038  RH  013%=      5-min Rain = 0
KGO1 301804Z 24018KT 37/04 A2983 RMK A01 T03710036  RH  013%=      5-min Rain = 0
KGO1 301805Z 24017KT 37/04 A2983 RMK A01 T03720037  RH  013%=      5-min Rain = 0
KGO1 301806Z 24016KT 37/04 A2983 RMK A01 T03720037  RH  013%=      5-min Rain = 0
KGO1 301807Z 25014KT 37/03 A2983 RMK A01 T03710031  RH  012%=      5-min Rain = 0
KGO1 301808Z 23012KT 37/03 A2983 RMK A01 T03690029  RH  012%=      5-min Rain = 0
KGO1 301809Z 22013KT 37/04 A2983 RMK A01 T03680039  RH  013%=      5-min Rain = 0
KGO1 301810Z 21017KT 37/04 A2983 RMK A01 T03730036  RH  012%=      5-min Rain = 0
KGO1 301811Z 22014G19KT 37/04 A2983 RMK A01 T03730038  RH  013%=      5-min Rain = 0
KGO1 301812Z 22016KT 38/04 A2983 RMK A01 T03750042  RH  013%=      5-min Rain = 0
KGO1 301813Z 21016KT 38/04 A2983 RMK A01 T03750036  RH  012%=      5-min Rain = 0
KGO1 301814Z 20021KT 38/04 A2982 RMK A01 T03750037  RH  012%=      5-min Rain = 0
KGO1 301815Z 22020G25KT 38/04 A2982 RMK A01 T03750035  RH  012%=      5-min Rain = 0
KGO1 301816Z 22020G27KT 38/04 A2982 RMK A01 T03750042  RH  013%=      5-min Rain = 0
KGO1 301817Z 22017KT 38/04 A2982 RMK A01 T03780042  RH  013%=      5-min Rain = 0
KGO1 301818Z 22019KT 38/04 A2982 RMK A01 T03770038  RH  012%=      5-min Rain = 0
KGO1 301819Z 24014KT 38/04 A2982 RMK A01 T03750041  RH  013%=      5-min Rain = 0
KGO1 301820Z 25017KT 38/05 A2983 RMK A01 T03780051  RH  013%=      5-min Rain = 0
KGO1 301821Z 23016G21KT 38/05 A2982 RMK A01 T03810045  RH  013%=      5-min Rain = 0
KGO1 301822Z 22020KT 38/05 A2982 RMK A01 T03810046  RH  013%=      5-min Rain = 0
KGO1 301823Z 22018KT 38/04 A2982 RMK A01 T03810044  RH  013%=      5-min Rain = 0
KGO1 301824Z 22021KT 38/04 A2982 RMK A01 T03790036  RH  012%=      5-min Rain = 0
KGO1 301825Z 21016KT 37/03 A2982 RMK A01 T03740034  RH  012%=      5-min Rain = 0
KGO1 301826Z 22017KT 37/04 A2983 RMK A01 T03730036  RH  012%=      5-min Rain = 0
KGO1 301827Z 21022KT 37/04 A2982 RMK A01 T03740038  RH  013%=      5-min Rain = 0
KGO1 301828Z 20018KT 37/03 A2983 RMK A01 T03740031  RH  012%=      5-min Rain = 0
KGO1 301829Z 20015KT 37/03 A2983 RMK A01 T03710034  RH  012%=      5-min Rain = 0
KGO1 301830Z 22015KT 37/04 A2983 RMK A01 T03740041  RH  013%=      5-min Rain = 0
KGO1 301831Z 23017KT 38/04 A2983 RMK A01 T03760040  RH  012%=      5-min Rain = 0
KGO1 301832Z 23017G22KT 38/04 A2983 RMK A01 T03750036  RH  012%=      5-min Rain = 0
KGO1 301833Z 24014KT 37/04 A2983 RMK A01 T03720042  RH  013%=      5-min Rain = 0
KGO1 301834Z 26017KT 37/04 A2983 RMK A01 T03740043  RH  013%=      5-min Rain = 0
KGO1 301835Z 26014KT 37/04 A2983 RMK A01 T03720036  RH  012%=      5-min Rain = 0
KGO1 301836Z 24023KT 37/04 A2983 RMK A01 T03700038  RH  013%=      5-min Rain = 0
KGO1 301837Z 23025KT 37/04 A2982 RMK A01 T03700035  RH  013%=      5-min Rain = 0
KGO1 301838Z 23023KT 37/04 A2983 RMK A01 T03700035  RH  012%=      5-min Rain = 0
KGO1 301839Z 24023KT 37/04 A2983 RMK A01 T03710041  RH  013%=      5-min Rain = 0
KGO1 301840Z 24020KT 37/04 A2983 RMK A01 T03720035  RH  012%=      5-min Rain = 0
KGO1 301841Z 24019KT 37/04 A2983 RMK A01 T03710036  RH  013%=      5-min Rain = 0
KGO1 301842Z 23015KT 37/03 A2983 RMK A01 T03690031  RH  012%=      5-min Rain = 0
KGO1 301843Z 25012KT 37/03 A2983 RMK A01 T03670033  RH  013%=      5-min Rain = 0
KGO1 301844Z 25011G16KT 37/04 A2983 RMK A01 T03670041  RH  013%=      5-min Rain = 0
KGO1 301845Z 22013KT 37/04 A2983 RMK A01 T03720039  RH  013%=      5-min Rain = 0
KGO1 301846Z 22016KT 37/04 A2983 RMK A01 T03720037  RH  013%=      5-min Rain = 0
KGO1 301847Z 22014KT 37/03 A2982 RMK A01 T03720032  RH  012%=      5-min Rain = 0
KGO1 301848Z 24014KT 37/04 A2983 RMK A01 T03690037  RH  013%=      5-min Rain = 0
KGO1 301849Z 25015KT 37/04 A2982 RMK A01 T03700035  RH  013%=      5-min Rain = 0
KGO1 301850Z 25011KT 37/04 A2982 RMK A01 T03710042  RH  013%=      5-min Rain = 0
KGO1 301851Z 23010KT 37/05 A2982 RMK A01 T03740047  RH  013%=      5-min Rain = 0
KGO1 301852Z 24010KT 38/04 A2982 RMK A01 T03790042  RH  013%=      5-min Rain = 0
KGO1 301853Z 23016G24KT 38/04 A2982 RMK A01 T03770043  RH  013%=      5-min Rain = 0
KGO1 301854Z 22020KT 38/04 A2982 RMK A01 T03760039  RH  012%=      5-min Rain = 0
KGO1 301855Z 21023KT 38/04 A2982 RMK A01 T03760035  RH  012%=      5-min Rain = 0
KGO1 301856Z 23019G24KT 37/03 A2982 RMK A01 T03720032  RH  012%=      5-min Rain = 0
KGO1 301857Z 24012KT 37/04 A2982 RMK A01 T03690035  RH  013%=      5-min Rain = 0
KGO1 301858Z 22013KT 37/04 A2982 RMK A01 T03720036  RH  013%=      5-min Rain = 0
KGO1 301859Z 23012KT 37/04 A2982 RMK A01 T03740039  RH  013%=      5-min Rain = 0
KGO1 301900Z 24016KT 38/04 A2982 RMK A01 T03750042  RH  013%=      5-min Rain = 0
KGO1 301901Z 25014KT 38/04 A2982 RMK A01 T03760042  RH  013%=      5-min Rain = 0
KGO1 301902Z 25012KT 38/04 A2982 RMK A01 T03760043  RH  013%=      5-min Rain = 0
KGO1 301903Z 23011KT 38/04 A2982 RMK A01 T03770041  RH  013%=      5-min Rain = 0
KGO1 301904Z 21015KT 38/04 A2982 RMK A01 T03770042  RH  013%=      5-min Rain = 0
KGO1 301905Z 21017KT 38/04 A2982 RMK A01 T03780037  RH  012%=      5-min Rain = 0
KGO1 301906Z 21017KT 38/04 A2982 RMK A01 T03780042  RH  013%=      5-min Rain = 0
KGO1 301907Z 21017KT 38/04 A2982 RMK A01 T03790037  RH  012%=      5-min Rain = 0
KGO1 301908Z 22020KT 38/04 A2982 RMK A01 T03770042  RH  013%=      5-min Rain = 0
KGO1 301909Z 22019G24KT 38/04 A2982 RMK A01 T03790039  RH  012%=      5-min Rain = 0
KGO1 301910Z 23012KT 37/03 A2982 RMK A01 T03740034  RH  012%=      5-min Rain = 0
KGO1 301911Z 25009KT 37/03 A2982 RMK A01 T03720032  RH  012%=      5-min Rain = 0
KGO1 301912Z 24010KT 37/04 A2982 RMK A01 T03710041  RH  013%=      5-min Rain = 0
KGO1 301913Z 22011KT 38/04 A2982 RMK A01 T03750043  RH  013%=      5-min Rain = 0
KGO1 301914Z 21013KT 38/04 A2982 RMK A01 T03760042  RH  013%=      5-min Rain = 0
KGO1 301915Z 21012G17KT 38/04 A2982 RMK A01 T03770039  RH  012%=      5-min Rain = 0
KGO1 301916Z 22015KT 38/04 A2982 RMK A01 T03780043  RH  013%=      5-min Rain = 0
KGO1 301917Z 23015G21KT 38/05 A2982 RMK A01 T03780046  RH  013%=      5-min Rain = 0
KGO1 301918Z 24014G19KT 38/05 A2982 RMK A01 T03800045  RH  013%=      5-min Rain = 0
KGO1 301919Z 25017KT 38/04 A2982 RMK A01 T03790044  RH  013%=      5-min Rain = 0
KGO1 301920Z 23019KT 38/05 A2982 RMK A01 T03780046  RH  013%=      5-min Rain = 0
KGO1 301921Z 23021KT 38/04 A2982 RMK A01 T03780039  RH  012%=      5-min Rain = 0
KGO1 301922Z 22022KT 38/04 A2981 RMK A01 T03760044  RH  013%=      5-min Rain = 0
KGO1 301923Z 23020KT 38/04 A2982 RMK A01 T03780040  RH  012%=      5-min Rain = 0
KGO1 301924Z 24015KT 37/04 A2982 RMK A01 T03740036  RH  012%=      5-min Rain = 0
KGO1 301925Z 24013KT 37/04 A2982 RMK A01 T03720040  RH  013%=      5-min Rain = 0
KGO1 301926Z 21013KT 37/04 A2982 RMK A01 T03740038  RH  012%=      5-min Rain = 0
KGO1 301927Z 22015G21KT 37/04 A2982 RMK A01 T03740043  RH  013%=      5-min Rain = 0
KGO1 301928Z 24021KT 38/05 A2981 RMK A01 T03770045  RH  013%=      5-min Rain = 0
KGO1 301929Z 24017KT 38/04 A2981 RMK A01 T03800042  RH  012%=      5-min Rain = 0
KGO1 301930Z 24012KT 38/04 A2981 RMK A01 T03790042  RH  013%=      5-min Rain = 0
KGO1 301931Z 24013KT 38/04 A2981 RMK A01 T03790043  RH  013%=      5-min Rain = 0
KGO1 301932Z 24015KT 38/04 A2981 RMK A01 T03790040  RH  012%=      5-min Rain = 0
KGO1 301933Z 24014KT 38/04 A2981 RMK A01 T03760041  RH  013%=      5-min Rain = 0
KGO1 301934Z 24012KT 38/04 A2981 RMK A01 T03760041  RH  013%=      5-min Rain = 0
KGO1 301935Z 24014G22KT 38/05 A2981 RMK A01 T03760045  RH  013%=      5-min Rain = 0
KGO1 301936Z 25014G19KT 38/05 A2981 RMK A01 T03800046  RH  013%=      5-min Rain = 0
KGO1 301937Z 25019G24KT 38/05 A2981 RMK A01 T03800046  RH  013%=      5-min Rain = 0
KGO1 301938Z 24019G25KT 38/05 A2981 RMK A01 T03790047  RH  013%=      5-min Rain = 0
KGO1 301939Z 22020KT 38/04 A2981 RMK A01 T03830044  RH  012%=      5-min Rain = 0
KGO1 301940Z 24023KT 38/04 A2981 RMK A01 T03810038  RH  012%=      5-min Rain = 0
KGO1 301941Z 24020KT 38/04 A2981 RMK A01 T03780037  RH  012%=      5-min Rain = 0
KGO1 301942Z 24022G29KT 38/04 A2981 RMK A01 T03770041  RH  013%=      5-min Rain = 0
KGO1 301943Z 25020KT 38/04 A2981 RMK A01 T03780038  RH  012%=      5-min Rain = 0
KGO1 301944Z 25022KT 38/04 A2981 RMK A01 T03760037  RH  012%=      5-min Rain = 0
KGO1 301945Z 25021KT 37/04 A2981 RMK A01 T03740036  RH  012%=      5-min Rain = 0
KGO1 301946Z 24016KT 37/04 A2981 RMK A01 T03730037  RH  012%=      5-min Rain = 0
KGO1 301947Z 25012KT 37/04 A2981 RMK A01 T03730041  RH  013%=      5-min Rain = 0
KGO1 301948Z 23016KT 38/04 A2981 RMK A01 T03770040  RH  012%=      5-min Rain = 0
KGO1 301949Z 21020KT 38/03 A298 RMK A01 T03780034  RH  012%=      5-min Rain = 0
KGO1 301950Z 23020G25KT 38/04 A2981 RMK A01 T03770039  RH  012%=      5-min Rain = 0
KGO1 301951Z 23020KT 38/04 A298 RMK A01 T03790040  RH  012%=      5-min Rain = 0
KGO1 301952Z 22018G24KT 38/04 A2981 RMK A01 T03790043  RH  013%=      5-min Rain = 0
KGO1 301953Z 23024KT 38/04 A2981 RMK A01 T03820037  RH  012%=      5-min Rain = 0
KGO1 301954Z 23020G25KT 38/04 A2981 RMK A01 T03790041  RH  012%=      5-min Rain = 0
KGO1 301955Z 24021KT 38/03 A2981 RMK A01 T03790034  RH  012%=      5-min Rain = 0
KGO1 301956Z 23018KT 38/04 A2981 RMK A01 T03750035  RH  012%=      5-min Rain = 0
KGO1 301957Z 23018G23KT 38/04 A2981 RMK A01 T03750036  RH  012%=      5-min Rain = 0
KGO1 301958Z 22019KT 38/04 A2981 RMK A01 T03770037  RH  012%=      5-min Rain = 0
KGO1 301959Z 21017G22KT 38/03 A2981 RMK A01 T03780033  RH  012%=      5-min Rain = 0
KGO1 302000Z 22019KT 38/03 A2981 RMK A01 T03760031  RH  012%=      5-min Rain = 0
KGO1 302001Z 22024KT 38/04 A2981 RMK A01 T03760035  RH  012%=      5-min Rain = 0
KGO1 302002Z 22024KT 38/03 A2981 RMK A01 T03770032  RH  012%=      5-min Rain = 0
KGO1 302003Z 22020KT 38/03 A2981 RMK A01 T03750033  RH  012%=      5-min Rain = 0
KGO1 302004Z 22023KT 38/03 A298 RMK A01 T03750034  RH  012%=      5-min Rain = 0
KGO1 302005Z 22023KT 38/03 A298 RMK A01 T03760032  RH  012%=      5-min Rain = 0
KGO1 302006Z 22021G26KT 38/03 A298 RMK A01 T03750033  RH  012%=      5-min Rain = 0
KGO1 302007Z 23022G27KT 37/03 A298 RMK A01 T03740032  RH  012%=      5-min Rain = 0
KGO1 302008Z 23021G26KT 37/03 A298 RMK A01 T03740033  RH  012%=      5-min Rain = 0
KGO1 302009Z 21020G25KT 37/03 A298 RMK A01 T03740032  RH  012%=      5-min Rain = 0
KGO1 302010Z 21018G25KT 37/03 A298 RMK A01 T03730028  RH  012%=      5-min Rain = 0
KGO1 302011Z 21019G24KT 37/03 A298 RMK A01 T03730029  RH  012%=      5-min Rain = 0
KGO1 302012Z 22013KT 37/03 A298 RMK A01 T03720031  RH  012%=      5-min Rain = 0
KGO1 302013Z 23015KT 37/03 A298 RMK A01 T03720033  RH  012%=      5-min Rain = 0
KGO1 302014Z 23024KT 37/04 A298 RMK A01 T03740035  RH  012%=      5-min Rain = 0
KGO1 302015Z 23023KT 38/04 A298 RMK A01 T03750035  RH  012%=      5-min Rain = 0
KGO1 302016Z 24024KT 38/04 A298 RMK A01 T03750036  RH  012%=      5-min Rain = 0
KGO1 302017Z 24026G31KT 38/04 A298 RMK A01 T03750040  RH  013%=      5-min Rain = 0
KGO1 302018Z 24025KT 38/04 A298 RMK A01 T03780040  RH  012%=      5-min Rain = 0
KGO1 302019Z 23024KT 38/04 A298 RMK A01 T03770037  RH  012%=      5-min Rain = 0
KGO1 302020Z 24024KT 38/04 A298 RMK A01 T03760038  RH  012%=      5-min Rain = 0
KGO1 302021Z 23022KT 38/04 A298 RMK A01 T03750037  RH  012%=      5-min Rain = 0
KGO1 302022Z 23018KT 38/04 A298 RMK A01 T03750040  RH  013%=      5-min Rain = 0
KGO1 302023Z 24016KT 38/04 A298 RMK A01 T03780039  RH  012%=      5-min Rain = 0
KGO1 302024Z 25018KT 38/04 A298 RMK A01 T03780036  RH  012%=      5-min Rain = 0
KGO1 302025Z 25016KT 37/03 A298 RMK A01 T03740034  RH  012%=      5-min Rain = 0
KGO1 302026Z 24010KT 37/04 A298 RMK A01 T03720037  RH  012%=      5-min Rain = 0
KGO1 302027Z 22012G18KT 37/04 A298 RMK A01 T03730036  RH  012%=      5-min Rain = 0
KGO1 302028Z 23011KT 37/04 A298 RMK A01 T03740038  RH  012%=      5-min Rain = 0
KGO1 302029Z 22018G25KT 38/04 A298 RMK A01 T03750040  RH  013%=      5-min Rain = 0
KGO1 302030Z 21020KT 38/04 A298 RMK A01 T03760039  RH  012%=      5-min Rain = 0
KGO1 302031Z 22016G22KT 38/04 A298 RMK A01 T03760039  RH  012%=      5-min Rain = 0
KGO1 302032Z 23021KT 38/04 A298 RMK A01 T03760041  RH  013%=      5-min Rain = 0
KGO1 302033Z 23019KT 38/04 A298 RMK A01 T03760039  RH  012%=      5-min Rain = 0
KGO1 302034Z 22016KT 38/04 A298 RMK A01 T03750041  RH  013%=      5-min Rain = 0
KGO1 302035Z 21021KT 38/04 A298 RMK A01 T03780041  RH  012%=      5-min Rain = 0
KGO1 302036Z 21019G25KT 38/04 A298 RMK A01 T03770039  RH  012%=      5-min Rain = 0
KGO1 302037Z 21020KT 38/04 A298 RMK A01 T03780039  RH  012%=      5-min Rain = 0
KGO1 302038Z 22024G30KT 38/04 A298 RMK A01 T03800043  RH  013%=      5-min Rain = 0
KGO1 302039Z 23023KT 38/04 A298 RMK A01 T03810038  RH  012%=      5-min Rain = 0
KGO1 302040Z 23021KT 38/03 A298 RMK A01 T03780034  RH  012%=      5-min Rain = 0
KGO1 302041Z 24020G26KT 38/04 A298 RMK A01 T03760040  RH  013%=      5-min Rain = 0
KGO1 302042Z 23024KT 38/03 A298 RMK A01 T03770034  RH  012%=      5-min Rain = 0
KGO1 302043Z 23024G29KT 38/03 A298 RMK A01 T03760033  RH  012%=      5-min Rain = 0
KGO1 302044Z 23020KT 37/03 A298 RMK A01 T03740031  RH  012%=      5-min Rain = 0
KGO1 302045Z 23021KT 37/04 A298 RMK A01 T03730036  RH  012%=      5-min Rain = 0
KGO1 302046Z 24020G26KT 37/04 A298 RMK A01 T03730035  RH  012%=      5-min Rain = 0
KGO1 302047Z 24014KT 37/04 A298 RMK A01 T03740043  RH  013%=      5-min Rain = 0
KGO1 302048Z 24015G20KT 38/04 A298 RMK A01 T03780044  RH  013%=      5-min Rain = 0
KGO1 302049Z 23019G25KT 38/04 A2979 RMK A01 T03790036  RH  012%=      5-min Rain = 0
KGO1 302050Z 23021G27KT 38/03 A2979 RMK A01 T03760033  RH  012%=      5-min Rain = 0
KGO1 302051Z 24022G27KT 38/03 A2979 RMK A01 T03750032  RH  012%=      5-min Rain = 0
KGO1 302052Z 23022KT 38/04 A2979 RMK A01 T03760035  RH  012%=      5-min Rain = 0
KGO1 302053Z 21018KT 38/04 A2979 RMK A01 T03800041  RH  012%=      5-min Rain = 0
KGO1 302054Z 22022G27KT 38/04 A2979 RMK A01 T03830039  RH  012%=      5-min Rain = 0
KGO1 302055Z 22021KT 38/04 A298 RMK A01 T03830041  RH  012%=      5-min Rain = 0
KGO1 302056Z 21019KT 38/04 A298 RMK A01 T03820038  RH  012%=      5-min Rain = 0
KGO1 302057Z 22019G24KT 38/04 A298 RMK A01 T03810039  RH  012%=      5-min Rain = 0
KGO1 302058Z 22017G22KT 38/04 A298 RMK A01 T03790036  RH  012%=      5-min Rain = 0
KGO1 302059Z 23016G24KT 38/03 A298 RMK A01 T03770034  RH  012%=      5-min Rain = 0
KGO1 302100Z 24012KT 37/03 A2979 RMK A01 T03740034  RH  012%=      5-min Rain = 0
KGO1 302101Z 25013KT 37/04 A2979 RMK A01 T03740038  RH  012%=      5-min Rain = 0
KGO1 302102Z 25017KT 38/04 A2979 RMK A01 T03760036  RH  012%=      5-min Rain = 0
KGO1 302103Z 23012G18KT 38/04 A2979 RMK A01 T03760040  RH  013%=      5-min Rain = 0
KGO1 302104Z 22017KT 38/04 A2979 RMK A01 T03790035  RH  012%=      5-min Rain = 0
KGO1 302105Z 23019G24KT 38/03 A2979 RMK A01 T03800025  RH  011%=      5-min Rain = 0
KGO1 302106Z 23016G21KT 38/03 A2979 RMK A01 T03800031  RH  012%=      5-min Rain = 0
KGO1 302107Z 23020G25KT 38/03 A2979 RMK A01 T03840034  RH  012%=      5-min Rain = 0
KGO1 302108Z 23023KT 38/03 A2979 RMK A01 T03820025  RH  011%=      5-min Rain = 0
KGO1 302109Z 23020KT 38/02 A2979 RMK A01 T03780021  RH  011%=      5-min Rain = 0
KGO1 302110Z 23021G26KT 38/03 A2979 RMK A01 T03770025  RH  011%=      5-min Rain = 0
KGO1 302111Z 23024G31KT 38/02 A2979 RMK A01 T03790022  RH  011%=      5-min Rain = 0
KGO1 302112Z 22023G29KT 38/01 A2979 RMK A01 T03780011  RH  010%=      5-min Rain = 0
KGO1 302113Z 22018KT 38/01 A2979 RMK A01 T03760013  RH  010%=      5-min Rain = 0
KGO1 302114Z 21022G27KT 38/00 A2979 RMK A01 T03760004  RH  010%=      5-min Rain = 0
KGO1 302115Z 21022G27KT 38/M00 A2979 RMK A01 T03771002  RH  009%=      5-min Rain = 0
KGO1 302116Z 22021KT 38/00 A2979 RMK A01 T03760003  RH  010%=      5-min Rain = 0
KGO1 302117Z 22021G26KT 38/00 A2979 RMK A01 T03780003  RH  010%=      5-min Rain = 0
KGO1 302118Z 21020KT 38/M00 A2979 RMK A01 T03801002  RH  009%=      5-min Rain = 0
KGO1 302119Z 21019KT 38/M00 A2979 RMK A01 T03791001  RH  009%=      5-min Rain = 0
KGO1 302120Z 20018KT 38/M00 A2979 RMK A01 T03791001  RH  009%=      5-min Rain = 0
KGO1 302121Z 20018G25KT 38/M01 A2979 RMK A01 T03781007  RH  009%=      5-min Rain = 0
KGO1 302122Z 22019G25KT 38/01 A2979 RMK A01 T03780006  RH  010%=      5-min Rain = 0
KGO1 302123Z 23020KT 38/00 A2979 RMK A01 T03820002  RH  009%=      5-min Rain = 0
KGO1 302124Z 24023KT 38/M00 A2979 RMK A01 T03821001  RH  009%=      5-min Rain = 0
KGO1 302125Z 24025KT 38/M01 A2979 RMK A01 T03801011  RH  009%=      5-min Rain = 0
KGO1 302126Z 25018G25KT 38/M01 A2979 RMK A01 T03761011  RH  009%=      5-min Rain = 0
KGO1 302127Z 25019KT 38/M00 A2979 RMK A01 T03761002  RH  009%=      5-min Rain = 0
KGO1 302128Z 24018KT 38/M01 A2979 RMK A01 T03781006  RH  009%=      5-min Rain = 0
KGO1 302129Z 23015KT 38/M00 A2979 RMK A01 T03771004  RH  009%=      5-min Rain = 0
KGO1 302130Z 22016KT 38/M00 A2979 RMK A01 T03771001  RH  009%=      5-min Rain = 0
KGO1 302131Z 23013KT 38/M00 A2979 RMK A01 T03771001  RH  009%=      5-min Rain = 0
KGO1 302132Z 24014KT 38/01 A2979 RMK A01 T03770005  RH  010%=      5-min Rain = 0
KGO1 302133Z 25019G25KT 38/01 A2979 RMK A01 T03800006  RH  010%=      5-min Rain = 0
KGO1 302134Z 25020KT 38/00 A2979 RMK A01 T03820003  RH  009%=      5-min Rain = 0
KGO1 302135Z 25019KT 38/M01 A2979 RMK A01 T03811009  RH  009%=      5-min Rain = 0
KGO1 302136Z 25017KT 38/M00 A2979 RMK A01 T03781001  RH  009%=      5-min Rain = 0
KGO1 302137Z 24017KT 38/00 A2979 RMK A01 T03790000  RH  009%=      5-min Rain = 0
KGO1 302138Z 24017G25KT 38/00 A2979 RMK A01 T03790002  RH  009%=      5-min Rain = 0
KGO1 302139Z 23019KT 38/M01 A2979 RMK A01 T03791011  RH  009%=      5-min Rain = 0
KGO1 302140Z 23014KT 38/M01 A2979 RMK A01 T03761009  RH  009%=      5-min Rain = 0
KGO1 302141Z 22018KT 38/M00 A2979 RMK A01 T03761002  RH  009%=      5-min Rain = 0
KGO1 302142Z 23018KT 38/M01 A2979 RMK A01 T03771011  RH  009%=      5-min Rain = 0
KGO1 302143Z 22023G28KT 38/M01 A2979 RMK A01 T03761010  RH  009%=      5-min Rain = 0
KGO1 302144Z 21021KT 38/M02 A2979 RMK A01 T03761016  RH  008%=      5-min Rain = 0
KGO1 302145Z 21022G27KT 38/M02 A2979 RMK A01 T03751015  RH  009%=      5-min Rain = 0
KGO1 302146Z 22020KT 38/M01 A2979 RMK A01 T03751010  RH  009%=      5-min Rain = 0
KGO1 302147Z 22019KT 38/M00 A2979 RMK A01 T03781004  RH  009%=      5-min Rain = 0
KGO1 302148Z 23020KT 38/M01 A2979 RMK A01 T03811007  RH  009%=      5-min Rain = 0
KGO1 302149Z 22020KT 38/M01 A2979 RMK A01 T03801014  RH  008%=      5-min Rain = 0
KGO1 302150Z 22023G29KT 38/M01 A2979 RMK A01 T03791012  RH  009%=      5-min Rain = 0
KGO1 302151Z 24022KT 38/M01 A2979 RMK A01 T03791013  RH  008%=      5-min Rain = 0
KGO1 302152Z 23023KT 38/M02 A2979 RMK A01 T03791019  RH  008%=      5-min Rain = 0
KGO1 302153Z 22021KT 38/M02 A2979 RMK A01 T03801021  RH  008%=      5-min Rain = 0
KGO1 302154Z 22019KT 38/M02 A2979 RMK A01 T03801018  RH  008%=      5-min Rain = 0
KGO1 302155Z 23023KT 38/M01 A2979 RMK A01 T03791012  RH  008%=      5-min Rain = 0
KGO1 302156Z 23021KT 38/M01 A2979 RMK A01 T03791008  RH  009%=      5-min Rain = 0
KGO1 302157Z 23021KT 38/M02 A2979 RMK A01 T03781016  RH  008%=      5-min Rain = 0
KGO1 302158Z 23019KT 38/M02 A2979 RMK A01 T03751017  RH  008%=      5-min Rain = 0
KGO1 302159Z 23015KT 37/M02 A2979 RMK A01 T03741017  RH  008%=      5-min Rain = 0
KGO1 302200Z 23012KT 37/M01 A2979 RMK A01 T03741013  RH  009%=      5-min Rain = 0
KGO1 302201Z 23013KT 38/M01 A2979 RMK A01 T03751010  RH  009%=      5-min Rain = 0
KGO1 302202Z 23014G22KT 38/M01 A2979 RMK A01 T03761007  RH  009%=      5-min Rain = 0
KGO1 302203Z 23017KT 38/M00 A2979 RMK A01 T03781002  RH  009%=      5-min Rain = 0
KGO1 302204Z 24016KT 38/M00 A2979 RMK A01 T03801002  RH  009%=      5-min Rain = 0
KGO1 302205Z 21017KT 38/M00 A2979 RMK A01 T03811003  RH  009%=      5-min Rain = 0
KGO1 302206Z 22018G24KT 38/M01 A2979 RMK A01 T03791007  RH  009%=      5-min Rain = 0
KGO1 302207Z 24023KT 38/M01 A2979 RMK A01 T03781010  RH  009%=      5-min Rain = 0
KGO1 302208Z 24018KT 38/M01 A2979 RMK A01 T03751012  RH  009%=      5-min Rain = 0
KGO1 302209Z 22016KT 37/M01 A2979 RMK A01 T03741006  RH  009%=      5-min Rain = 0
KGO1 302210Z 21016KT 38/M01 A2979 RMK A01 T03771005  RH  009%=      5-min Rain = 0
KGO1 302211Z 21018G25KT 38/M01 A2979 RMK A01 T03781013  RH  009%=      5-min Rain = 0
KGO1 302212Z 22018KT 38/M01 A2979 RMK A01 T03771009  RH  009%=      5-min Rain = 0
KGO1 302213Z 23018G23KT 38/M00 A2978 RMK A01 T03781003  RH  009%=      5-min Rain = 0
KGO1 302214Z 22016G21KT 38/00 A2979 RMK A01 T03800004  RH  010%=      5-min Rain = 0
KGO1 302215Z 21022KT 38/M01 A2979 RMK A01 T03821007  RH  009%=      5-min Rain = 0
KGO1 302216Z 21019G24KT 38/M01 A2979 RMK A01 T03801010  RH  009%=      5-min Rain = 0
KGO1 302217Z 21019KT 38/M01 A2979 RMK A01 T03781010  RH  009%=      5-min Rain = 0
KGO1 302218Z 21018KT 38/M01 A2979 RMK A01 T03781011  RH  009%=      5-min Rain = 0
KGO1 302219Z 22018KT 38/M01 A2979 RMK A01 T03771007  RH  009%=      5-min Rain = 0
KGO1 302220Z 22018KT 38/M01 A2979 RMK A01 T03781009  RH  009%=      5-min Rain = 0
KGO1 302221Z 24019G25KT 38/M00 A2979 RMK A01 T03781003  RH  009%=      5-min Rain = 0
KGO1 302222Z 23022G28KT 38/M00 A2979 RMK A01 T03781004  RH  009%=      5-min Rain = 0
KGO1 302223Z 21021KT 38/M01 A2979 RMK A01 T03761007  RH  009%=      5-min Rain = 0
KGO1 302224Z 23021KT 38/M00 A2978 RMK A01 T03751004  RH  009%=      5-min Rain = 0
KGO1 302225Z 23021KT 38/M00 A2978 RMK A01 T03761002  RH  009%=      5-min Rain = 0
KGO1 302226Z 22018G27KT 38/00 A2979 RMK A01 T03770003  RH  010%=      5-min Rain = 0
KGO1 302227Z 23022KT 38/00 A2978 RMK A01 T03790001  RH  009%=      5-min Rain = 0
KGO1 302228Z 23024G29KT 38/M01 A2978 RMK A01 T03781007  RH  009%=      5-min Rain = 0
KGO1 302229Z 22024KT 38/M01 A2978 RMK A01 T03761011  RH  009%=      5-min Rain = 0
KGO1 302230Z 23021KT 37/M01 A2978 RMK A01 T03741012  RH  009%=      5-min Rain = 0
KGO1 302231Z 22023KT 37/M01 A2979 RMK A01 T03731006  RH  009%=      5-min Rain = 0
KGO1 302232Z 23020KT 37/M01 A2978 RMK A01 T03741006  RH  009%=      5-min Rain = 0
KGO1 302233Z 22017KT 37/M00 A2979 RMK A01 T03741001  RH  009%=      5-min Rain = 0
KGO1 302234Z 22014KT 38/00 A2979 RMK A01 T03760004  RH  010%=      5-min Rain = 0
KGO1 302235Z 23013G18KT 38/01 A2978 RMK A01 T03780005  RH  010%=      5-min Rain = 0
KGO1 302236Z 24020KT 38/00 A2978 RMK A01 T038000-0  RH  009%=      5-min Rain = 0
KGO1 302237Z 22020KT 38/M01 A2978 RMK A01 T03791008  RH  009%=      5-min Rain = 0
KGO1 302238Z 22021KT 38/M01 A2978 RMK A01 T03771010  RH  009%=      5-min Rain = 0
KGO1 302239Z 22020G25KT 38/M01 A2978 RMK A01 T03761010  RH  009%=      5-min Rain = 0
KGO1 302240Z 22019KT 38/M01 A2978 RMK A01 T03751008  RH  009%=      5-min Rain = 0
KGO1 302241Z 24019G24KT 38/M00 A2978 RMK A01 T03771001  RH  009%=      5-min Rain = 0
KGO1 302242Z 24017G24KT 38/00 A2978 RMK A01 T03790004  RH  010%=      5-min Rain = 0
KGO1 302243Z 24024KT 38/M01 A2978 RMK A01 T03791007  RH  009%=      5-min Rain = 0
KGO1 302244Z 24023KT 38/M01 A2978 RMK A01 T03761008  RH  009%=      5-min Rain = 0
KGO1 302245Z 24022KT 37/M01 A2978 RMK A01 T03741008  RH  009%=      5-min Rain = 0
KGO1 302246Z 24020KT 37/M01 A2978 RMK A01 T03731013  RH  009%=      5-min Rain = 0
KGO1 302247Z 25018KT 37/M01 A2978 RMK A01 T03721006  RH  009%=      5-min Rain = 0
KGO1 302248Z 25017KT 37/M00 A2978 RMK A01 T03721004  RH  009%=      5-min Rain = 0
KGO1 302249Z 24013KT 37/M01 A2978 RMK A01 T03731008  RH  009%=      5-min Rain = 0
KGO1 302250Z 24017KT 37/M00 A2978 RMK A01 T03721001  RH  010%=      5-min Rain = 0
KGO1 302251Z 25017KT 37/M00 A2978 RMK A01 T03731003  RH  009%=      5-min Rain = 0
KGO1 302252Z 25015KT 37/01 A2978 RMK A01 T03740007  RH  010%=      5-min Rain = 0
KGO1 302253Z 24020G28KT 38/01 A2978 RMK A01 T03760005  RH  010%=      5-min Rain = 0
KGO1 302254Z 23020G26KT 38/M01 A2978 RMK A01 T03751007  RH  009%=      5-min Rain = 0
KGO1 302255Z 23021G26KT 37/M01 A2978 RMK A01 T03741006  RH  009%=      5-min Rain = 0
KGO1 302256Z 24018KT 37/M00 A2978 RMK A01 T03741004  RH  009%=      5-min Rain = 0
KGO1 302257Z 24021KT 37/M01 A2978 RMK A01 T03741007  RH  009%=      5-min Rain = 0
KGO1 302258Z 23020KT 37/M01 A2978 RMK A01 T03741008  RH  009%=      5-min Rain = 0
KGO1 302259Z 24017KT 37/00 A2978 RMK A01 T037300-0  RH  010%=      5-min Rain = 0
KGO1 302300Z 24019KT 38/M01 A2978 RMK A01 T03751005  RH  009%=      5-min Rain = 0
KGO1 302301Z 24018KT 37/M01 A2978 RMK A01 T03741006  RH  009%=      5-min Rain = 0
KGO1 302302Z 25017KT 37/M01 A2978 RMK A01 T03731007  RH  009%=      5-min Rain = 0
KGO1 302303Z 24019KT 37/M01 A2978 RMK A01 T03731006  RH  009%=      5-min Rain = 0
KGO1 302304Z 23018KT 37/M01 A2978 RMK A01 T03731006  RH  009%=      5-min Rain = 0
KGO1 302305Z 24015KT 37/M01 A2978 RMK A01 T03731007  RH  009%=      5-min Rain = 0
KGO1 302306Z 24016KT 37/M00 A2978 RMK A01 T03731003  RH  009%=      5-min Rain = 0
KGO1 302307Z 22016G21KT 38/00 A2978 RMK A01 T03750003  RH  010%=      5-min Rain = 0
KGO1 302308Z 22017G22KT 38/M01 A2978 RMK A01 T03761012  RH  009%=      5-min Rain = 0
KGO1 302309Z 25016G21KT 37/M00 A2978 RMK A01 T03741003  RH  009%=      5-min Rain = 0
KGO1 302310Z 25017KT 37/M01 A2978 RMK A01 T03741005  RH  009%=      5-min Rain = 0
KGO1 302311Z 26016KT 37/M01 A2978 RMK A01 T03731005  RH  009%=      5-min Rain = 0
KGO1 302312Z 24016KT 37/M01 A2978 RMK A01 T03721005  RH  009%=      5-min Rain = 0
KGO1 302313Z 24015KT 37/M01 A2978 RMK A01 T03721010  RH  009%=      5-min Rain = 0
KGO1 302314Z 24013KT 37/M01 A2978 RMK A01 T03721006  RH  009%=      5-min Rain = 0
KGO1 302315Z 23014KT 37/01 A2978 RMK A01 T03720007  RH  010%=      5-min Rain = 0
KGO1 302316Z 22019KT 37/00 A2978 RMK A01 T03740001  RH  010%=      5-min Rain = 0
KGO1 302317Z 23022KT 37/M01 A2978 RMK A01 T03741007  RH  009%=      5-min Rain = 0
KGO1 302318Z 24020KT 37/M01 A2978 RMK A01 T03721006  RH  009%=      5-min Rain = 0
KGO1 302319Z 23020KT 37/M00 A2978 RMK A01 T03721003  RH  009%=      5-min Rain = 0
KGO1 302320Z 23019G25KT 37/M01 A2978 RMK A01 T03721005  RH  009%=      5-min Rain = 0
KGO1 302321Z 24021KT 37/M00 A2978 RMK A01 T03721003  RH  009%=      5-min Rain = 0
KGO1 302322Z 24020KT 37/M01 A2978 RMK A01 T03711005  RH  009%=      5-min Rain = 0
KGO1 302323Z 26020KT 37/M00 A2978 RMK A01 T03701004  RH  009%=      5-min Rain = 0
KGO1 302324Z 26019KT 37/M01 A2978 RMK A01 T03681005  RH  009%=      5-min Rain = 0
KGO1 302325Z 25018KT 37/M01 A2978 RMK A01 T03681005  RH  010%=      5-min Rain = 0
KGO1 302326Z 25016KT 37/M01 A2978 RMK A01 T03681006  RH  009%=      5-min Rain = 0
KGO1 302327Z 23015KT 37/M00 A2978 RMK A01 T03681002  RH  010%=      5-min Rain = 0
KGO1 302328Z 24016KT 37/00 A2978 RMK A01 T03690001  RH  010%=      5-min Rain = 0
KGO1 302329Z 24016KT 37/M00 A2978 RMK A01 T03711004  RH  009%=      5-min Rain = 0
KGO1 302330Z 24017G24KT 37/M00 A2977 RMK A01 T03711003  RH  010%=      5-min Rain = 0
KGO1 302331Z 26018G23KT 37/M00 A2977 RMK A01 T03711002  RH  010%=      5-min Rain = 0
KGO1 302332Z 25019KT 37/M00 A2977 RMK A01 T03701001  RH  010%=      5-min Rain = 0
KGO1 302333Z 25018G23KT 37/M01 A2978 RMK A01 T03701006  RH  009%=      5-min Rain = 0
KGO1 302334Z 25020KT 37/M00 A2978 RMK A01 T03691002  RH  010%=      5-min Rain = 0
KGO1 302335Z 25021KT 37/M00 A2978 RMK A01 T03691003  RH  010%=      5-min Rain = 0
KGO1 302336Z 25020KT 37/M01 A2978 RMK A01 T03681007  RH  009%=      5-min Rain = 0
KGO1 302337Z 24020KT 37/M00 A2978 RMK A01 T03681002  RH  010%=      5-min Rain = 0
KGO1 302338Z 25021KT 37/M00 A2978 RMK A01 T03691003  RH  010%=      5-min Rain = 0
KGO1 302339Z 25021KT 37/M01 A2978 RMK A01 T03681005  RH  010%=      5-min Rain = 0
KGO1 302340Z 25021KT 37/M01 A2978 RMK A01 T03671007  RH  009%=      5-min Rain = 0
KGO1 302341Z 25023KT 37/M01 A2978 RMK A01 T03671007  RH  009%=      5-min Rain = 0
KGO1 302342Z 24021KT 37/M01 A2978 RMK A01 T03661007  RH  009%=      5-min Rain = 0
KGO1 302343Z 24016KT 37/M01 A2978 RMK A01 T03661008  RH  009%=      5-min Rain = 0
KGO1 302344Z 24018KT 37/M01 A2978 RMK A01 T03661007  RH  009%=      5-min Rain = 0
KGO1 302345Z 25014KT 37/M00 A2978 RMK A01 T03661001  RH  010%=      5-min Rain = 0
KGO1 302346Z 26013KT 37/00 A2978 RMK A01 T036700-0  RH  010%=      5-min Rain = 0
KGO1 302347Z 26014KT 37/M01 A2978 RMK A01 T03671008  RH  009%=      5-min Rain = 0
KGO1 302348Z 26015KT 37/M00 A2978 RMK A01 T03661001  RH  010%=      5-min Rain = 0
KGO1 302349Z 25016KT 37/M00 A2978 RMK A01 T03671001  RH  010%=      5-min Rain = 0
KGO1 302350Z 26015KT 37/M00 A2978 RMK A01 T03661004  RH  010%=      5-min Rain = 0
KGO1 302351Z 25016KT 37/00 A2978 RMK A01 T036600-0  RH  010%=      5-min Rain = 0
KGO1 302352Z 24015G20KT 37/M00 A2978 RMK A01 T03661004  RH  010%=      5-min Rain = 0
KGO1 302353Z 23015KT 37/00 A2978 RMK A01 T03670000  RH  010%=      5-min Rain = 0
KGO1 302354Z 23015KT 37/00 A2978 RMK A01 T03680002  RH  010%=      5-min Rain = 0
KGO1 302355Z 23016KT 37/M00 A2978 RMK A01 T03681001  RH  010%=      5-min Rain = 0
KGO1 302356Z 24018KT 37/M01 A2978 RMK A01 T03681008  RH  009%=      5-min Rain = 0
KGO1 302357Z 24017KT 37/M01 A2978 RMK A01 T03681009  RH  009%=      5-min Rain = 0
KGO1 302358Z 24017KT 37/M01 A2978 RMK A01 T03671008  RH  009%=      5-min Rain = 0
KGO1 302359Z 24020KT 37/M01 A2978 RMK A01 T03671009  RH  009%=      5-min Rain = 0
KGO1 010000Z 24021KT 37/M01 A2978 RMK A01 T03671012  RH  009%=      5-min Rain = 0
KGO1 010001Z 24018KT 37/M01 A2978 RMK A01 T03661010  RH  009%=      5-min Rain = 0
KGO1 010002Z 23017KT 37/M01 A2978 RMK A01 T03651009  RH  009%=      5-min Rain = 0
KGO1 010003Z 23017KT 37/M01 A2978 RMK A01 T03651008  RH  009%=      5-min Rain = 0
KGO1 010004Z 22019KT 37/M01 A2978 RMK A01 T03651011  RH  009%=      5-min Rain = 0
KGO1 010005Z 22016KT 37/M01 A2978 RMK A01 T03651014  RH  009%=      5-min Rain = 0
KGO1 010006Z 24014KT 36/M01 A2978 RMK A01 T03641011  RH  009%=      5-min Rain = 0
KGO1 010007Z 24018KT 36/M01 A2978 RMK A01 T03641013  RH  009%=      5-min Rain = 0
KGO1 010008Z 25014G19KT 37/M00 A2978 RMK A01 T03651001  RH  010%=      5-min Rain = 0
KGO1 010009Z 25018KT 37/M00 A2978 RMK A01 T03651001  RH  010%=      5-min Rain = 0
KGO1 010010Z 26018KT 36/M01 A2978 RMK A01 T03641005  RH  010%=      5-min Rain = 0
KGO1 010011Z 25017KT 36/M01 A2978 RMK A01 T03631009  RH  010%=      5-min Rain = 0
KGO1 010012Z 26015KT 36/M01 A2978 RMK A01 T03621007  RH  010%=      5-min Rain = 0
KGO1 010013Z 26013KT 36/M01 A2978 RMK A01 T03621009  RH  010%=      5-min Rain = 0
KGO1 010014Z 26010KT 36/00 A2978 RMK A01 T03610004  RH  011%=      5-min Rain = 0
KGO1 010015Z 24012KT 36/01 A2979 RMK A01 T03610005  RH  011%=      5-min Rain = 0
KGO1 010016Z 23013G18KT 36/M01 A2978 RMK A01 T03611010  RH  009%=      5-min Rain = 0
KGO1 010017Z 22015KT 36/M01 A2978 RMK A01 T03621009  RH  010%=      5-min Rain = 0
KGO1 010018Z 22017KT 36/M01 A2978 RMK A01 T03621009  RH  010%=      5-min Rain = 0
KGO1 010019Z 24015KT 36/M01 A2979 RMK A01 T03621006  RH  010%=      5-min Rain = 0
KGO1 010020Z 23016KT 36/M01 A2978 RMK A01 T03621009  RH  009%=      5-min Rain = 0
KGO1 010021Z 23015G20KT 36/M01 A2979 RMK A01 T03621007  RH  010%=      5-min Rain = 0
KGO1 010022Z 24018KT 36/M01 A2979 RMK A01 T03621009  RH  010%=      5-min Rain = 0
KGO1 010023Z 24016KT 36/M01 A2979 RMK A01 T03621010  RH  009%=      5-min Rain = 0
KGO1 010024Z 24016KT 36/M01 A2979 RMK A01 T03621008  RH  010%=      5-min Rain = 0
KGO1 010025Z 24016KT 36/M01 A2979 RMK A01 T03621013  RH  009%=      5-min Rain = 0
KGO1 010026Z 25017KT 36/M01 A2979 RMK A01 T03611011  RH  009%=      5-min Rain = 0
KGO1 010027Z 24017KT 36/M01 A2979 RMK A01 T03611005  RH  010%=      5-min Rain = 0
KGO1 010028Z 24015KT 36/M01 A2979 RMK A01 T03611007  RH  010%=      5-min Rain = 0
KGO1 010029Z 24015KT 36/M00 A2979 RMK A01 T03611004  RH  010%=      5-min Rain = 0
KGO1 010030Z 25014KT 36/M00 A2979 RMK A01 T03611002  RH  010%=      5-min Rain = 0
KGO1 010031Z 23012KT 36/00 A2979 RMK A01 T03600001  RH  010%=      5-min Rain = 0
KGO1 010032Z 23010KT 36/01 A2979 RMK A01 T03600005  RH  011%=      5-min Rain = 0
KGO1 010033Z 24011KT 36/01 A2979 RMK A01 T03590005  RH  011%=      5-min Rain = 0
KGO1 010034Z 23011G17KT 36/01 A2979 RMK A01 T03600009  RH  011%=      5-min Rain = 0
KGO1 010035Z 23017KT 36/M00 A2979 RMK A01 T03591002  RH  010%=      5-min Rain = 0
KGO1 010036Z 23019G25KT 36/M00 A2979 RMK A01 T03591003  RH  010%=      5-min Rain = 0
KGO1 010037Z 23017G22KT 36/M00 A2979 RMK A01 T03591003  RH  010%=      5-min Rain = 0
KGO1 010038Z 24014G19KT 36/00 A2979 RMK A01 T03590002  RH  010%=      5-min Rain = 0
KGO1 010039Z 23017KT 36/M01 A2979 RMK A01 T03591006  RH  010%=      5-min Rain = 0
KGO1 010040Z 24013KT 36/M00 A2979 RMK A01 T03581003  RH  010%=      5-min Rain = 0
KGO1 010041Z 24014KT 36/00 A2979 RMK A01 T035700-0  RH  010%=      5-min Rain = 0
KGO1 010042Z 23015KT 36/M00 A2979 RMK A01 T03571002  RH  010%=      5-min Rain = 0
KGO1 010043Z 23017KT 36/M01 A2979 RMK A01 T03571006  RH  010%=      5-min Rain = 0
KGO1 010044Z 23013KT 36/M01 A2979 RMK A01 T03571007  RH  010%=      5-min Rain = 0
KGO1 010045Z 24012KT 36/00 A2979 RMK A01 T03570002  RH  011%=      5-min Rain = 0
KGO1 010046Z 24013KT 36/00 A2979 RMK A01 T03560001  RH  011%=      5-min Rain = 0
KGO1 010047Z 24014KT 36/00 A2979 RMK A01 T035500-0  RH  011%=      5-min Rain = 0
KGO1 010048Z 24014KT 36/M00 A2979 RMK A01 T03551002  RH  010%=      5-min Rain = 0
KGO1 010049Z 24015KT 36/M01 A2979 RMK A01 T03551005  RH  010%=      5-min Rain = 0
KGO1 010050Z 24014KT 36/M00 A2979 RMK A01 T03551002  RH  010%=      5-min Rain = 0
KGO1 010051Z 24015KT 35/M00 A2979 RMK A01 T03541003  RH  010%=      5-min Rain = 0
KGO1 010052Z 25015KT 35/M01 A2979 RMK A01 T03541005  RH  010%=      5-min Rain = 0
KGO1 010053Z 24012KT 35/M01 A2979 RMK A01 T03531005  RH  010%=      5-min Rain = 0
KGO1 010054Z 24011G17KT 35/00 A2979 RMK A01 T03530004  RH  011%=      5-min Rain = 0
KGO1 010055Z 24015KT 35/M00 A2979 RMK A01 T03521004  RH  010%=      5-min Rain = 0
KGO1 010056Z 24015KT 35/M01 A2979 RMK A01 T03521007  RH  010%=      5-min Rain = 0
KGO1 010057Z 25011KT 35/M00 A2979 RMK A01 T03521002  RH  011%=      5-min Rain = 0
KGO1 010058Z 25011KT 35/00 A2979 RMK A01 T03510004  RH  011%=      5-min Rain = 0
KGO1 010059Z 25010KT 35/01 A2979 RMK A01 T03500011  RH  012%=      5-min Rain = 0
KGO1 010100Z 25012KT 35/00 A2979 RMK A01 T03490004  RH  011%=      5-min Rain = 0
KGO1 010101Z 25011KT 35/00 A2979 RMK A01 T03490002  RH  011%=      5-min Rain = 0
KGO1 010102Z 26012KT 35/00 A2979 RMK A01 T03480004  RH  011%=      5-min Rain = 0
KGO1 010103Z 25012KT 35/00 A2979 RMK A01 T03470003  RH  011%=      5-min Rain = 0
KGO1 010104Z 26012KT 35/01 A2979 RMK A01 T03460006  RH  012%=      5-min Rain = 0
KGO1 010105Z 26012KT 35/00 A2979 RMK A01 T03460001  RH  011%=      5-min Rain = 0
KGO1 010106Z 26012KT 35/00 A2979 RMK A01 T03450000  RH  011%=      5-min Rain = 0
KGO1 010107Z 26013KT 35/M00 A298 RMK A01 T03451001  RH  011%=      5-min Rain = 0
KGO1 010108Z 25013KT 35/M00 A298 RMK A01 T03451002  RH  011%=      5-min Rain = 0
KGO1 010109Z 25013KT 34/M00 A298 RMK A01 T03441002  RH  011%=      5-min Rain = 0
KGO1 010110Z 26012KT 34/00 A298 RMK A01 T03440001  RH  011%=      5-min Rain = 0
KGO1 010111Z 26014KT 34/M00 A298 RMK A01 T03421002  RH  011%=      5-min Rain = 0
KGO1 010112Z 26015KT 34/M00 A298 RMK A01 T03421004  RH  011%=      5-min Rain = 0
KGO1 010113Z 25015KT 34/M01 A298 RMK A01 T03431007  RH  011%=      5-min Rain = 0
KGO1 010114Z 25013KT 34/M00 A298 RMK A01 T03431004  RH  011%=      5-min Rain = 0
KGO1 010115Z 25012KT 34/M00 A298 RMK A01 T03421002  RH  011%=      5-min Rain = 0
KGO1 010116Z 25011KT 34/00 A298 RMK A01 T034100-0  RH  011%=      5-min Rain = 0
KGO1 010117Z 25010KT 34/00 A298 RMK A01 T03400004  RH  012%=      5-min Rain = 0
KGO1 010118Z 25010KT 34/01 A298 RMK A01 T03380005  RH  012%=      5-min Rain = 0
KGO1 010119Z 25012KT 34/00 A298 RMK A01 T03370002  RH  012%=      5-min Rain = 0
KGO1 010120Z 25010KT 34/M00 A298 RMK A01 T03371003  RH  011%=      5-min Rain = 0
KGO1 010121Z 25010KT 34/00 A298 RMK A01 T03380002  RH  012%=      5-min Rain = 0
KGO1 010122Z 25011KT 34/M00 A298 RMK A01 T03381001  RH  012%=      5-min Rain = 0
KGO1 010123Z 25011KT 34/00 A298 RMK A01 T03360002  RH  012%=      5-min Rain = 0
KGO1 010124Z 25010KT 34/00 A298 RMK A01 T03350003  RH  012%=      5-min Rain = 0
KGO1 010125Z 25010KT 33/00 A298 RMK A01 T03340004  RH  012%=      5-min Rain = 0
KGO1 010126Z 25011KT 33/00 A298 RMK A01 T03330001  RH  012%=      5-min Rain = 0
KGO1 010127Z 24011KT 33/00 A298 RMK A01 T03320001  RH  012%=      5-min Rain = 0
KGO1 010128Z 24010KT 33/00 A298 RMK A01 T03320004  RH  012%=      5-min Rain = 0
KGO1 010129Z 24010KT 33/00 A298 RMK A01 T03300002  RH  012%=      5-min Rain = 0
KGO1 010130Z 24010KT 33/00 A298 RMK A01 T03290002  RH  012%=      5-min Rain = 0
KGO1 010131Z 24010KT 33/00 A298 RMK A01 T03280004  RH  013%=      5-min Rain = 0
KGO1 010132Z 24010KT 33/00 A298 RMK A01 T03270004  RH  013%=      5-min Rain = 0
KGO1 010133Z 24009KT 33/00 A298 RMK A01 T03260004  RH  013%=      5-min Rain = 0
KGO1 010134Z 23009KT 33/01 A298 RMK A01 T03250005  RH  013%=      5-min Rain = 0
KGO1 010135Z 23008KT 32/01 A298 RMK A01 T03230008  RH  013%=      5-min Rain = 0
KGO1 010136Z 23008KT 32/01 A298 RMK A01 T03210008  RH  014%=      5-min Rain = 0
KGO1 010137Z 23009KT 32/01 A298 RMK A01 T03200008  RH  014%=      5-min Rain = 0
KGO1 010138Z 23011KT 32/00 A298 RMK A01 T03190002  RH  013%=      5-min Rain = 0
KGO1 010139Z 23010KT 32/M00 A298 RMK A01 T03221001  RH  013%=      5-min Rain = 0
KGO1 010140Z 23009KT 32/00 A298 RMK A01 T032400-0  RH  013%=      5-min Rain = 0
KGO1 010141Z 23009KT 32/00 A298 RMK A01 T03230002  RH  013%=      5-min Rain = 0
KGO1 010142Z 23008KT 32/00 A298 RMK A01 T03210004  RH  013%=      5-min Rain = 0
KGO1 010143Z 23009KT 32/00 A298 RMK A01 T03180004  RH  013%=      5-min Rain = 0
KGO1 010144Z 23009KT 32/00 A298 RMK A01 T03160003  RH  013%=      5-min Rain = 0
KGO1 010145Z 23009KT 31/00 A298 RMK A01 T03140004  RH  014%=      5-min Rain = 0
KGO1 010146Z 23009KT 31/00 A298 RMK A01 T03130004  RH  014%=      5-min Rain = 0
KGO1 010147Z 23009KT 31/00 A298 RMK A01 T03120004  RH  014%=      5-min Rain = 0
KGO1 010148Z 23010KT 31/00 A298 RMK A01 T03110002  RH  014%=      5-min Rain = 0
KGO1 010149Z 23009KT 31/M00 A298 RMK A01 T03121001  RH  013%=      5-min Rain = 0
KGO1 010150Z 23010KT 31/M00 A298 RMK A01 T03131001  RH  013%=      5-min Rain = 0
KGO1 010151Z 23010KT 31/M00 A298 RMK A01 T03141004  RH  013%=      5-min Rain = 0
KGO1 010152Z 23010KT 32/M00 A298 RMK A01 T03151003  RH  013%=      5-min Rain = 0
KGO1 010153Z 23010KT 32/M00 A298 RMK A01 T03151004  RH  013%=      5-min Rain = 0
KGO1 010154Z 23010KT 32/M00 A298 RMK A01 T03151004  RH  013%=      5-min Rain = 0
KGO1 010155Z 23010KT 31/M01 A298 RMK A01 T03141007  RH  013%=      5-min Rain = 0
KGO1 010156Z 23010KT 31/M01 A298 RMK A01 T03141006  RH  013%=      5-min Rain = 0
KGO1 010157Z 23010KT 31/M01 A298 RMK A01 T03141007  RH  013%=      5-min Rain = 0
KGO1 010158Z 23010KT 31/M01 A298 RMK A01 T03141007  RH  013%=      5-min Rain = 0
KGO1 010159Z 23009KT 31/M01 A298 RMK A01 T03131007  RH  013%=      5-min Rain = 0
KGO1 010200Z 23009KT 31/M01 A298 RMK A01 T03121007  RH  013%=      5-min Rain = 0
KGO1 010201Z 23009KT 31/M01 A298 RMK A01 T03111007  RH  013%=      5-min Rain = 0
KGO1 010202Z 23009KT 31/M01 A298 RMK A01 T03091006  RH  013%=      5-min Rain = 0
KGO1 010203Z 23008KT 31/M01 A298 RMK A01 T03071005  RH  013%=      5-min Rain = 0
KGO1 010204Z 23009KT 31/M00 A2981 RMK A01 T03051004  RH  014%=      5-min Rain = 0
KGO1 010205Z 23008KT 30/M00 A2981 RMK A01 T03031004  RH  014%=      5-min Rain = 0
KGO1 010206Z 23008KT 30/M00 A2981 RMK A01 T03011003  RH  014%=      5-min Rain = 0
KGO1 010207Z 23008KT 30/M00 A2981 RMK A01 T02981002  RH  014%=      5-min Rain = 0
KGO1 010208Z 23009KT 30/M00 A2981 RMK A01 T02971003  RH  014%=      5-min Rain = 0
KGO1 010209Z 23009KT 30/M00 A2981 RMK A01 T02961004  RH  014%=      5-min Rain = 0
KGO1 010210Z 23009KT 30/M00 A2981 RMK A01 T02951004  RH  014%=      5-min Rain = 0
KGO1 010211Z 23008KT 29/M00 A2981 RMK A01 T02941003  RH  015%=      5-min Rain = 0
KGO1 010212Z 23008KT 29/M00 A2981 RMK A01 T02931002  RH  015%=      5-min Rain = 0
KGO1 010213Z 23008KT 29/M00 A2981 RMK A01 T02921002  RH  015%=      5-min Rain = 0
KGO1 010214Z 23008KT 29/M00 A2981 RMK A01 T02901002  RH  015%=      5-min Rain = 0
KGO1 010215Z 23008KT 29/M00 A2981 RMK A01 T02891001  RH  015%=      5-min Rain = 0
KGO1 010216Z 24008KT 29/M00 A2981 RMK A01 T02881001  RH  015%=      5-min Rain = 0
KGO1 010217Z 23008KT 29/00 A2981 RMK A01 T02860000  RH  016%=      5-min Rain = 0
KGO1 010218Z 23008KT 29/00 A2981 RMK A01 T02850000  RH  016%=      5-min Rain = 0
KGO1 010219Z 24008KT 28/00 A2981 RMK A01 T028400-0  RH  016%=      5-min Rain = 0
KGO1 010220Z 24007KT 28/00 A2981 RMK A01 T02820003  RH  016%=      5-min Rain = 0
KGO1 010221Z 24007KT 28/01 A2981 RMK A01 T02800005  RH  017%=      5-min Rain = 0
KGO1 010222Z 23008KT 28/01 A2981 RMK A01 T02770007  RH  017%=      5-min Rain = 0
KGO1 010223Z 24007KT 28/01 A2981 RMK A01 T02760009  RH  018%=      5-min Rain = 0
KGO1 010224Z 24007KT 27/01 A2981 RMK A01 T02730013  RH  018%=      5-min Rain = 0
KGO1 010225Z 24008KT 27/01 A2981 RMK A01 T02710011  RH  018%=      5-min Rain = 0
KGO1 010226Z 24008KT 27/01 A2981 RMK A01 T02700011  RH  019%=      5-min Rain = 0
KGO1 010227Z 23008KT 27/01 A2981 RMK A01 T02700011  RH  019%=      5-min Rain = 0
KGO1 010228Z 23008KT 27/01 A2981 RMK A01 T02690010  RH  019%=      5-min Rain = 0
KGO1 010229Z 24008KT 27/01 A2981 RMK A01 T02690012  RH  019%=      5-min Rain = 0
KGO1 010230Z 24008KT 27/01 A2981 RMK A01 T02670012  RH  019%=      5-min Rain = 0
KGO1 010231Z 23008KT 27/01 A2981 RMK A01 T02670010  RH  019%=      5-min Rain = 0
KGO1 010232Z 24008KT 27/01 A2981 RMK A01 T02670008  RH  019%=      5-min Rain = 0
KGO1 010233Z 24008KT 27/01 A2981 RMK A01 T02670007  RH  018%=      5-min Rain = 0
KGO1 010234Z 23008KT 27/01 A2981 RMK A01 T02670008  RH  018%=      5-min Rain = 0
KGO1 010235Z 23007KT 27/01 A2981 RMK A01 T02670009  RH  019%=      5-min Rain = 0
KGO1 010236Z 23007KT 27/01 A2981 RMK A01 T02670011  RH  019%=      5-min Rain = 0
KGO1 010237Z 23007KT 27/01 A2981 RMK A01 T02660011  RH  019%=      5-min Rain = 0
KGO1 010238Z 23007KT 27/01 A2981 RMK A01 T02650011  RH  019%=      5-min Rain = 0
KGO1 010239Z 23007KT 27/01 A2981 RMK A01 T02650010  RH  019%=      5-min Rain = 0
KGO1 010240Z 23007KT 27/01 A2981 RMK A01 T02650010  RH  019%=      5-min Rain = 0
KGO1 010241Z 23007KT 27/01 A2981 RMK A01 T02650010  RH  019%=      5-min Rain = 0
KGO1 010242Z 23006KT 27/01 A2981 RMK A01 T02650010  RH  019%=      5-min Rain = 0
KGO1 010243Z 23006KT 26/01 A2981 RMK A01 T02640011  RH  019%=      5-min Rain = 0
KGO1 010244Z 23006KT 26/01 A2981 RMK A01 T02640011  RH  019%=      5-min Rain = 0
KGO1 010245Z 23006KT 26/01 A2981 RMK A01 T02630011  RH  019%=      5-min Rain = 0
KGO1 010246Z 24006KT 26/01 A2981 RMK A01 T02630013  RH  020%=      5-min Rain = 0
KGO1 010247Z 24006KT 26/02 A2981 RMK A01 T02600016  RH  020%=      5-min Rain = 0
KGO1 010248Z 24006KT 26/02 A2981 RMK A01 T02570016  RH  021%=      5-min Rain = 0
KGO1 010249Z 23007KT 26/02 A2981 RMK A01 T02550015  RH  021%=      5-min Rain = 0
KGO1 010250Z 23007KT 26/01 A2981 RMK A01 T02550014  RH  021%=      5-min Rain = 0
KGO1 010251Z 23007KT 25/01 A2981 RMK A01 T02540014  RH  021%=      5-min Rain = 0
KGO1 010252Z 24007KT 25/01 A2981 RMK A01 T02540013  RH  021%=      5-min Rain = 0
KGO1 010253Z 24008KT 25/01 A2981 RMK A01 T02540012  RH  021%=      5-min Rain = 0
KGO1 010254Z 24008KT 26/01 A2982 RMK A01 T02550012  RH  020%=      5-min Rain = 0
KGO1 010255Z 24008KT 26/01 A2982 RMK A01 T02560012  RH  020%=      5-min Rain = 0
KGO1 010256Z 23008KT 26/01 A2982 RMK A01 T02560013  RH  020%=      5-min Rain = 0
KGO1 010257Z 23008KT 26/01 A2982 RMK A01 T02560014  RH  021%=      5-min Rain = 0
KGO1 010258Z 23007KT 26/02 A2982 RMK A01 T02560015  RH  021%=      5-min Rain = 0
KGO1 010259Z 23007KT 26/01 A2982 RMK A01 T02560014  RH  021%=      5-min Rain = 0
KGO1 010300Z 23007KT 26/01 A2982 RMK A01 T02560014  RH  021%=      5-min Rain = 0
KGO1 010301Z 23007KT 26/01 A2982 RMK A01 T02550014  RH  021%=      5-min Rain = 0
KGO1 010302Z 23007KT 26/01 A2982 RMK A01 T02550014  RH  021%=      5-min Rain = 0
KGO1 010303Z 23007KT 26/01 A2982 RMK A01 T02550014  RH  021%=      5-min Rain = 0
KGO1 010304Z 23007KT 26/01 A2982 RMK A01 T02550014  RH  021%=      5-min Rain = 0
KGO1 010305Z 23007KT 26/01 A2982 RMK A01 T02550013  RH  021%=      5-min Rain = 0
KGO1 010306Z 23007KT 26/01 A2982 RMK A01 T02550013  RH  021%=      5-min Rain = 0
KGO1 010307Z 23007KT 26/01 A2982 RMK A01 T02550013  RH  021%=      5-min Rain = 0
KGO1 010308Z 23007KT 26/01 A2982 RMK A01 T02550013  RH  021%=      5-min Rain = 0
KGO1 010309Z 23007KT 26/01 A2982 RMK A01 T02550014  RH  021%=      5-min Rain = 0
KGO1 010310Z 22007KT 25/01 A2982 RMK A01 T02540014  RH  021%=      5-min Rain = 0
KGO1 010311Z 23007KT 25/01 A2982 RMK A01 T02540014  RH  021%=      5-min Rain = 0
KGO1 010312Z 23007KT 25/02 A2982 RMK A01 T02540015  RH  021%=      5-min Rain = 0
KGO1 010313Z 23007KT 25/02 A2982 RMK A01 T02530015  RH  021%=      5-min Rain = 0
KGO1 010314Z 23007KT 25/02 A2982 RMK A01 T02530015  RH  021%=      5-min Rain = 0
KGO1 010315Z 23007KT 25/02 A2982 RMK A01 T02520015  RH  021%=      5-min Rain = 0
KGO1 010316Z 23006KT 25/02 A2982 RMK A01 T02520015  RH  021%=      5-min Rain = 0
KGO1 010317Z 23006KT 25/02 A2982 RMK A01 T02510016  RH  021%=      5-min Rain = 0
KGO1 010318Z 23006KT 25/02 A2982 RMK A01 T02510016  RH  022%=      5-min Rain = 0
KGO1 010319Z 23006KT 25/02 A2982 RMK A01 T02500015  RH  022%=      5-min Rain = 0
KGO1 010320Z 23006KT 25/02 A2982 RMK A01 T02510015  RH  021%=      5-min Rain = 0
KGO1 010321Z 23006KT 25/02 A2982 RMK A01 T02500015  RH  022%=      5-min Rain = 0
KGO1 010322Z 23007KT 25/02 A2982 RMK A01 T02500015  RH  022%=      5-min Rain = 0
KGO1 010323Z 23007KT 25/02 A2982 RMK A01 T02500015  RH  022%=      5-min Rain = 0
KGO1 010324Z 23007KT 25/02 A2982 RMK A01 T02500016  RH  022%=      5-min Rain = 0
KGO1 010325Z 23007KT 25/02 A2982 RMK A01 T02500018  RH  022%=      5-min Rain = 0
KGO1 010326Z 23008KT 25/02 A2982 RMK A01 T02490018  RH  022%=      5-min Rain = 0
KGO1 010327Z 23007KT 25/02 A2982 RMK A01 T02480018  RH  022%=      5-min Rain = 0
KGO1 010328Z 23007KT 25/02 A2982 RMK A01 T02480019  RH  022%=      5-min Rain = 0
KGO1 010329Z 23007KT 25/02 A2982 RMK A01 T02470019  RH  022%=      5-min Rain = 0
KGO1 010330Z 23007KT 25/02 A2982 RMK A01 T02480021  RH  023%=      5-min Rain = 0
KGO1 010331Z 23007KT 25/02 A2982 RMK A01 T02470021  RH  023%=      5-min Rain = 0
KGO1 010332Z 23007KT 25/02 A2982 RMK A01 T02460022  RH  023%=      5-min Rain = 0
KGO1 010333Z 23007KT 25/02 A2982 RMK A01 T02460024  RH  023%=      5-min Rain = 0
KGO1 010334Z 24007KT 25/02 A2982 RMK A01 T02450024  RH  024%=      5-min Rain = 0
KGO1 010335Z 24007KT 24/02 A2982 RMK A01 T02430024  RH  024%=      5-min Rain = 0
KGO1 010336Z 24007KT 24/02 A2982 RMK A01 T02430023  RH  024%=      5-min Rain = 0
KGO1 010337Z 24007KT 24/02 A2982 RMK A01 T02430023  RH  024%=      5-min Rain = 0
KGO1 010338Z 24007KT 24/02 A2982 RMK A01 T02430024  RH  024%=      5-min Rain = 0
KGO1 010339Z 24007KT 24/03 A2982 RMK A01 T02430025  RH  024%=      5-min Rain = 0
KGO1 010340Z 24007KT 24/03 A2982 RMK A01 T02430026  RH  024%=      5-min Rain = 0
KGO1 010341Z 24007KT 24/03 A2982 RMK A01 T02420025  RH  024%=      5-min Rain = 0
KGO1 010342Z 23007KT 24/03 A2982 RMK A01 T02410025  RH  024%=      5-min Rain = 0
KGO1 010343Z 23007KT 24/02 A2982 RMK A01 T02410024  RH  024%=      5-min Rain = 0
KGO1 010344Z 23007KT 24/02 A2983 RMK A01 T02420022  RH  024%=      5-min Rain = 0
KGO1 010345Z 23007KT 24/02 A2983 RMK A01 T02430021  RH  023%=      5-min Rain = 0
KGO1 010346Z 23007KT 24/02 A2983 RMK A01 T02440021  RH  023%=      5-min Rain = 0
KGO1 010347Z 23007KT 24/02 A2983 RMK A01 T02440023  RH  024%=      5-min Rain = 0
KGO1 010348Z 23006KT 24/02 A2983 RMK A01 T02440023  RH  024%=      5-min Rain = 0
KGO1 010349Z 23006KT 24/02 A2983 RMK A01 T02430023  RH  024%=      5-min Rain = 0
KGO1 010350Z 22007KT 24/03 A2983 RMK A01 T02420027  RH  025%=      5-min Rain = 0
KGO1 010351Z 22007KT 24/03 A2983 RMK A01 T02400027  RH  025%=      5-min Rain = 0
KGO1 010352Z 21007KT 24/03 A2983 RMK A01 T02390027  RH  025%=      5-min Rain = 0
KGO1 010353Z 21007KT 24/03 A2983 RMK A01 T02380027  RH  025%=      5-min Rain = 0
KGO1 010354Z 20006KT 24/03 A2983 RMK A01 T02370029  RH  026%=      5-min Rain = 0
KGO1 010355Z 19004KT 24/02 A2983 RMK A01 T02360023  RH  025%=      5-min Rain = 0
KGO1 010356Z 19004KT 24/02 A2983 RMK A01 T02380020  RH  024%=      5-min Rain = 0
KGO1 010357Z 18004KT 24/02 A2983 RMK A01 T02410020  RH  024%=      5-min Rain = 0
KGO1 010358Z 19005KT 24/02 A2983 RMK A01 T02430020  RH  023%=      5-min Rain = 0
KGO1 010359Z 18005KT 24/02 A2983 RMK A01 T02440021  RH  023%=      5-min Rain = 0
KGO1 010400Z 18005KT 24/02 A2983 RMK A01 T02440018  RH  023%=      5-min Rain = 0
KGO1 010401Z 18005KT 25/01 A2983 RMK A01 T02470013  RH  022%=      5-min Rain = 0
KGO1 010402Z 18005KT 25/01 A2983 RMK A01 T02510010  RH  021%=      5-min Rain = 0
KGO1 010403Z 18005KT 25/01 A2983 RMK A01 T02530014  RH  021%=      5-min Rain = 0
KGO1 010404Z 18005KT 25/01 A2983 RMK A01 T02540010  RH  020%=      5-min Rain = 0
KGO1 010405Z 18005KT 26/01 A2983 RMK A01 T02560008  RH  020%=      5-min Rain = 0
KGO1 010406Z 18005KT 26/01 A2983 RMK A01 T02580011  RH  020%=      5-min Rain = 0
KGO1 010407Z 19005KT 26/02 A2983 RMK A01 T02560017  RH  021%=      5-min Rain = 0
KGO1 010408Z 19005KT 26/01 A2983 RMK A01 T02550007  RH  020%=      5-min Rain = 0
KGO1 010409Z 19004KT 26/02 A2983 RMK A01 T02560019  RH  021%=      5-min Rain = 0
KGO1 010410Z 19005KT 25/01 A2983 RMK A01 T02530013  RH  021%=      5-min Rain = 0
KGO1 010411Z 20005KT 25/02 A2983 RMK A01 T02520019  RH  022%=      5-min Rain = 0
KGO1 010412Z 20005KT 25/02 A2983 RMK A01 T02500021  RH  022%=      5-min Rain = 0
KGO1 010413Z 20005KT 25/02 A2983 RMK A01 T02480022  RH  023%=      5-min Rain = 0
KGO1 010414Z 20004KT 25/02 A2983 RMK A01 T02450024  RH  023%=      5-min Rain = 0
KGO1 010415Z 20004KT 24/02 A2983 RMK A01 T02430023  RH  024%=      5-min Rain = 0
KGO1 010416Z 21004KT 24/02 A2983 RMK A01 T02420022  RH  024%=      5-min Rain = 0
KGO1 010417Z 21004KT 24/02 A2983 RMK A01 T02420024  RH  024%=      5-min Rain = 0
KGO1 010418Z 21004KT 24/03 A2983 RMK A01 T02420025  RH  024%=      5-min Rain = 0
KGO1 010419Z 21004KT 24/02 A2983 RMK A01 T02410024  RH  024%=      5-min Rain = 0
KGO1 010420Z 21004KT 24/02 A2983 RMK A01 T02400024  RH  024%=      5-min Rain = 0
KGO1 010421Z 22004KT 24/03 A2983 RMK A01 T02410025  RH  024%=      5-min Rain = 0
KGO1 010422Z 22004KT 24/03 A2983 RMK A01 T02400025  RH  025%=      5-min Rain = 0
KGO1 010423Z 22004KT 24/03 A2983 RMK A01 T02400025  RH  025%=      5-min Rain = 0
KGO1 010424Z 22004KT 24/03 A2983 RMK A01 T02390026  RH  025%=      5-min Rain = 0
KGO1 010425Z 21004KT 24/03 A2983 RMK A01 T02380026  RH  025%=      5-min Rain = 0
KGO1 010426Z 21005KT 24/03 A2983 RMK A01 T02370025  RH  025%=      5-min Rain = 0
KGO1 010427Z 21004KT 24/03 A2983 RMK A01 T02370025  RH  025%=      5-min Rain = 0
KGO1 010428Z 22004KT 24/03 A2983 RMK A01 T02370025  RH  025%=      5-min Rain = 0
KGO1 010429Z 22005KT 24/03 A2983 RMK A01 T02370026  RH  025%=      5-min Rain = 0
KGO1 010430Z 22006KT 24/03 A2983 RMK A01 T02360027  RH  026%=      5-min Rain = 0
KGO1 010431Z 23007KT 24/03 A2983 RMK A01 T02350026  RH  025%=      5-min Rain = 0
KGO1 010432Z 23007KT 24/03 A2983 RMK A01 T02350027  RH  026%=      5-min Rain = 0
KGO1 010433Z 23007KT 23/03 A2983 RMK A01 T02340027  RH  026%=      5-min Rain = 0
KGO1 010434Z 23007KT 23/03 A2983 RMK A01 T02330029  RH  026%=      5-min Rain = 0
KGO1 010435Z 23007KT 23/03 A2983 RMK A01 T02320033  RH  027%=      5-min Rain = 0
KGO1 010436Z 24007KT 23/03 A2983 RMK A01 T02290034  RH  028%=      5-min Rain = 0
KGO1 010437Z 24007KT 23/04 A2983 RMK A01 T02260035  RH  029%=      5-min Rain = 0
KGO1 010438Z 24008KT 23/04 A2983 RMK A01 T02250035  RH  029%=      5-min Rain = 0
KGO1 010439Z 24008KT 22/04 A2983 RMK A01 T02230036  RH  029%=      5-min Rain = 0
KGO1 010440Z 24008KT 22/04 A2983 RMK A01 T02220036  RH  030%=      5-min Rain = 0
KGO1 010441Z 24008KT 22/04 A2983 RMK A01 T02220037  RH  030%=      5-min Rain = 0
KGO1 010442Z 24008KT 22/04 A2983 RMK A01 T02210037  RH  030%=      5-min Rain = 0
KGO1 010443Z 24008KT 22/04 A2983 RMK A01 T02210036  RH  030%=      5-min Rain = 0
KGO1 010444Z 24008KT 22/04 A2983 RMK A01 T02210035  RH  029%=      5-min Rain = 0
KGO1 010445Z 24008KT 22/03 A2983 RMK A01 T02220034  RH  029%=      5-min Rain = 0
KGO1 010446Z 24008KT 22/03 A2983 RMK A01 T02230033  RH  029%=      5-min Rain = 0
KGO1 010447Z 24008KT 22/03 A2983 RMK A01 T02240033  RH  029%=      5-min Rain = 0
KGO1 010448Z 23008KT 23/03 A2983 RMK A01 T02250032  RH  028%=      5-min Rain = 0
KGO1 010449Z 23008KT 23/03 A2983 RMK A01 T02250031  RH  028%=      5-min Rain = 0
KGO1 010450Z 23009KT 23/03 A2983 RMK A01 T02260030  RH  028%=      5-min Rain = 0
KGO1 010451Z 23009KT 23/03 A2983 RMK A01 T02270029  RH  027%=      5-min Rain = 0
KGO1 010452Z 23009KT 23/03 A2983 RMK A01 T02290027  RH  027%=      5-min Rain = 0
KGO1 010453Z 23009KT 23/03 A2983 RMK A01 T02300027  RH  026%=      5-min Rain = 0
KGO1 010454Z 23009KT 23/03 A2983 RMK A01 T02310026  RH  026%=      5-min Rain = 0
KGO1 010455Z 23009KT 23/03 A2983 RMK A01 T02330025  RH  026%=      5-min Rain = 0
KGO1 010456Z 23009KT 23/02 A2983 RMK A01 T02340024  RH  025%=      5-min Rain = 0
KGO1 010457Z 23009KT 24/02 A2983 RMK A01 T02360023  RH  025%=      5-min Rain = 0
KGO1 010458Z 23009KT 24/02 A2983 RMK A01 T02370024  RH  025%=      5-min Rain = 0
KGO1 010459Z 24009KT 24/02 A2983 RMK A01 T02370024  RH  025%=      5-min Rain = 0

Page generated in 0.0718 seconds.